KLM274 SBGR-KEWR
Flight info
| Callsign | KLM274 |
|---|---|
| Flight time | 9h 0m |
| Altitude | 35000 |
| Route | GERKA UZ26 SEKPO UZ40 EROPO DCT MOMSO DCT ELABI DCT TIR UL776 ESNUV DCT DALGA DCT TOXUN DCT FOF DCT PPR DCT KASKI DCT ANU DCT LAMKN DCT NEYDU DCT DAWIN/M085F350 L462 TARMO DCT GECAL DCT DASER L459 SAVIK/N0488F350 DCT YAALE Y497 SUBBS DCT CYN DCT GXU DCT RBV V249 METRO |
| Aircraft | A359/H-SDE2E3GHIJ3J4J5LM1ORWXY/LB1D1 |
Departure
| Time | 2026-04-23 18:04 |
|---|---|
| Airport | São Paulo/Guarulhos–Governor André Franco Montoro International Airport (SBGR) |
Arrival
| Time | 2026-04-24 03:04 |
|---|---|
| Airport | Newark Liberty International Airport (KEWR) |
| Time | Latitude | Longitude | Altitude | Speed | Heading |
|---|---|---|---|---|---|
| 2026-04-23 17:51 | -23.42984 | -46.48364 | 2480 ft | 0 kts | 61° |
| 2026-04-23 17:58 | -23.42976 | -46.48348 | 2480 ft | 4 kts | 61° |
| 2026-04-23 17:58 | -23.42966 | -46.48326 | 2480 ft | 1 kts | 61° |
| 2026-04-23 17:58 | -23.42977 | -46.48349 | 2480 ft | 4 kts | 65° |
| 2026-04-23 17:58 | -23.42987 | -46.48376 | 2480 ft | 4 kts | 71° |
| 2026-04-23 17:59 | -23.42995 | -46.48404 | 2480 ft | 4 kts | 79° |
| 2026-04-23 17:59 | -23.42997 | -46.48432 | 2480 ft | 4 kts | 104° |
| 2026-04-23 17:59 | -23.42988 | -46.48450 | 2480 ft | 2 kts | 178° |
| 2026-04-23 17:59 | -23.43002 | -46.48449 | 2480 ft | 4 kts | 180° |
| 2026-04-23 18:00 | -23.43022 | -46.48449 | 2480 ft | 0 kts | 180° |
| 2026-04-23 18:01 | -23.43025 | -46.48449 | 2480 ft | 2 kts | 180° |
| 2026-04-23 18:01 | -23.43052 | -46.48444 | 2480 ft | 7 kts | 163° |
| 2026-04-23 18:02 | -23.43091 | -46.48431 | 2480 ft | 11 kts | 163° |
| 2026-04-23 18:02 | -23.43213 | -46.48391 | 2481 ft | 17 kts | 164° |
| 2026-04-23 18:02 | -23.43333 | -46.48346 | 2481 ft | 19 kts | 162° |
| 2026-04-23 18:02 | -23.43404 | -46.48252 | 2480 ft | 18 kts | 81° |
| 2026-04-23 18:03 | -23.43367 | -46.48113 | 2480 ft | 20 kts | 73° |
| 2026-04-23 18:03 | -23.43299 | -46.47851 | 2479 ft | 61 kts | 74° |
| 2026-04-23 18:03 | -23.43132 | -46.47227 | 2478 ft | 109 kts | 74° |
| 2026-04-23 18:03 | -23.42876 | -46.46285 | 2478 ft | 149 kts | 73° |
| 2026-04-23 18:04 | -23.42577 | -46.45107 | 2704 ft | 164 kts | 70° |
| 2026-04-23 18:04 | -23.42259 | -46.43908 | 3105 ft | 164 kts | 74° |
| 2026-04-23 18:04 | -23.41899 | -46.42723 | 3544 ft | 165 kts | 73° |
| 2026-04-23 18:04 | -23.41512 | -46.41483 | 3741 ft | 182 kts | 73° |
| 2026-04-23 18:05 | -23.41097 | -46.40097 | 3945 ft | 205 kts | 73° |
| 2026-04-23 18:05 | -23.40645 | -46.38558 | 4168 ft | 222 kts | 74° |
| 2026-04-23 18:05 | -23.40158 | -46.36902 | 4384 ft | 237 kts | 72° |
| 2026-04-23 18:05 | -23.39422 | -46.35232 | 4557 ft | 254 kts | 61° |
| 2026-04-23 18:06 | -23.38470 | -46.33575 | 4958 ft | 260 kts | 59° |
| 2026-04-23 18:06 | -23.37490 | -46.31910 | 5470 ft | 264 kts | 59° |
| 2026-04-23 18:06 | -23.36492 | -46.30211 | 5898 ft | 269 kts | 58° |
| 2026-04-23 18:06 | -23.35483 | -46.28483 | 6360 ft | 272 kts | 58° |
| 2026-04-23 18:07 | -23.34466 | -46.26742 | 6901 ft | 273 kts | 58° |
| 2026-04-23 18:07 | -23.33452 | -46.24992 | 7390 ft | 274 kts | 58° |
| 2026-04-23 18:07 | -23.32432 | -46.23233 | 7900 ft | 275 kts | 58° |
| 2026-04-23 18:07 | -23.31408 | -46.21466 | 8442 ft | 276 kts | 59° |
| 2026-04-23 18:08 | -23.30730 | -46.20293 | 8779 ft | 278 kts | 59° |
| 2026-04-23 18:08 | -23.29341 | -46.17902 | 9425 ft | 280 kts | 59° |
| 2026-04-23 18:08 | -23.28296 | -46.16103 | 9923 ft | 281 kts | 59° |
| 2026-04-23 18:08 | -23.27247 | -46.14297 | 10323 ft | 286 kts | 59° |
| 2026-04-23 18:09 | -23.26162 | -46.12427 | 10520 ft | 298 kts | 59° |
| 2026-04-23 18:09 | -23.25033 | -46.10484 | 10689 ft | 310 kts | 59° |
| 2026-04-23 18:09 | -23.23857 | -46.08463 | 10880 ft | 322 kts | 59° |
| 2026-04-23 18:09 | -23.22635 | -46.06373 | 11068 ft | 333 kts | 57° |
| 2026-04-23 18:10 | -23.21115 | -46.04428 | 11213 ft | 346 kts | 41° |
| 2026-04-23 18:10 | -23.19010 | -46.03087 | 11359 ft | 358 kts | 24° |
| 2026-04-23 18:10 | -23.16583 | -46.02308 | 11526 ft | 370 kts | 11° |
| 2026-04-23 18:10 | -23.13978 | -46.02279 | 11659 ft | 383 kts | 353° |
| 2026-04-23 18:11 | -23.11419 | -46.03174 | 11849 ft | 393 kts | 334° |
| 2026-04-23 18:11 | -23.09217 | -46.04949 | 12119 ft | 399 kts | 315° |
| 2026-04-23 18:11 | -23.07383 | -46.07220 | 12472 ft | 401 kts | 310° |
| 2026-04-23 18:11 | -23.05607 | -46.09577 | 12787 ft | 404 kts | 310° |
| 2026-04-23 18:12 | -23.03826 | -46.11939 | 13162 ft | 405 kts | 310° |
| 2026-04-23 18:12 | -23.02034 | -46.14296 | 13531 ft | 406 kts | 310° |
| 2026-04-23 18:12 | -23.00230 | -46.16658 | 13871 ft | 408 kts | 310° |
| 2026-04-23 18:12 | -22.98414 | -46.19027 | 14182 ft | 409 kts | 310° |
| 2026-04-23 18:13 | -22.96589 | -46.21408 | 14446 ft | 412 kts | 310° |
| 2026-04-23 18:13 | -22.94736 | -46.23818 | 14624 ft | 418 kts | 310° |
| 2026-04-23 18:13 | -22.92891 | -46.26214 | 14893 ft | 420 kts | 311° |
| 2026-04-23 18:13 | -22.91020 | -46.28658 | 15209 ft | 422 kts | 309° |
| 2026-04-23 18:14 | -22.89874 | -46.30413 | 15421 ft | 423 kts | 302° |
| 2026-04-23 18:14 | -22.88062 | -46.34157 | 15885 ft | 423 kts | 296° |
| 2026-04-23 18:14 | -22.86784 | -46.37045 | 16101 ft | 427 kts | 295° |
| 2026-04-23 18:14 | -22.85499 | -46.39959 | 16358 ft | 430 kts | 295° |
| 2026-04-23 18:15 | -22.84204 | -46.42884 | 16606 ft | 432 kts | 295° |
| 2026-04-23 18:15 | -22.82902 | -46.45815 | 17020 ft | 430 kts | 295° |
| 2026-04-23 18:15 | -22.81602 | -46.48736 | 17250 ft | 434 kts | 295° |
| 2026-04-23 18:15 | -22.80290 | -46.51681 | 17584 ft | 433 kts | 295° |
| 2026-04-23 18:16 | -22.78974 | -46.54629 | 17918 ft | 435 kts | 295° |
| 2026-04-23 18:16 | -22.77655 | -46.57581 | 18157 ft | 437 kts | 295° |
| 2026-04-23 18:16 | -22.76329 | -46.60546 | 18418 ft | 438 kts | 295° |
| 2026-04-23 18:17 | -22.73661 | -46.66506 | 18913 ft | 440 kts | 295° |
| 2026-04-23 18:17 | -22.72323 | -46.69495 | 19150 ft | 441 kts | 295° |
| 2026-04-23 18:17 | -22.70985 | -46.72477 | 19411 ft | 441 kts | 295° |
| 2026-04-23 18:17 | -22.69646 | -46.75465 | 19685 ft | 441 kts | 295° |
| 2026-04-23 18:18 | -22.68304 | -46.78452 | 19950 ft | 441 kts | 295° |
| 2026-04-23 18:18 | -22.66960 | -46.81447 | 20167 ft | 442 kts | 295° |
| 2026-04-23 18:18 | -22.65614 | -46.84449 | 20391 ft | 443 kts | 295° |
| 2026-04-23 18:18 | -22.64719 | -46.86432 | 20550 ft | 444 kts | 295° |
| 2026-04-23 18:19 | -22.63361 | -46.89432 | 20806 ft | 444 kts | 295° |
| 2026-04-23 18:19 | -22.62002 | -46.92437 | 21031 ft | 445 kts | 295° |
| 2026-04-23 18:19 | -22.60646 | -46.95440 | 21249 ft | 445 kts | 295° |
| 2026-04-23 18:19 | -22.59286 | -46.98454 | 21494 ft | 446 kts | 296° |
| 2026-04-23 18:20 | -22.57761 | -47.01381 | 21722 ft | 447 kts | 303° |
| 2026-04-23 18:20 | -22.55809 | -47.03993 | 21927 ft | 449 kts | 314° |
| 2026-04-23 18:20 | -22.53412 | -47.06168 | 22144 ft | 451 kts | 324° |
| 2026-04-23 18:20 | -22.50660 | -47.07809 | 22313 ft | 455 kts | 335° |
| 2026-04-23 18:21 | -22.47634 | -47.08855 | 22499 ft | 458 kts | 346° |
| 2026-04-23 18:21 | -22.44508 | -47.09522 | 22690 ft | 460 kts | 349° |
| 2026-04-23 18:21 | -22.41340 | -47.10049 | 22888 ft | 461 kts | 350° |
| 2026-04-23 18:21 | -22.38153 | -47.10514 | 23061 ft | 462 kts | 351° |
| 2026-04-23 18:22 | -22.34959 | -47.10965 | 23263 ft | 464 kts | 351° |
| 2026-04-23 18:22 | -22.31760 | -47.11425 | 23439 ft | 465 kts | 350° |
| 2026-04-23 18:22 | -22.28548 | -47.11903 | 23584 ft | 467 kts | 350° |
| 2026-04-23 18:22 | -22.25332 | -47.12395 | 23700 ft | 469 kts | 350° |
| 2026-04-23 18:23 | -22.22100 | -47.12899 | 23865 ft | 469 kts | 349° |
| 2026-04-23 18:23 | -22.15623 | -47.13922 | 24156 ft | 471 kts | 349° |
| 2026-04-23 18:24 | -22.09121 | -47.14950 | 24455 ft | 473 kts | 349° |
| 2026-04-23 18:24 | -22.05900 | -47.15459 | 24579 ft | 475 kts | 349° |
| 2026-04-23 18:24 | -22.02629 | -47.15976 | 24700 ft | 476 kts | 349° |
| 2026-04-23 18:25 | -21.96057 | -47.17010 | 24990 ft | 478 kts | 349° |
| 2026-04-23 18:25 | -21.92762 | -47.17527 | 25146 ft | 479 kts | 349° |
| 2026-04-23 18:25 | -21.89458 | -47.18046 | 25279 ft | 480 kts | 349° |
| 2026-04-23 18:25 | -21.86152 | -47.18565 | 25461 ft | 480 kts | 349° |
| 2026-04-23 18:26 | -21.82848 | -47.19085 | 25557 ft | 482 kts | 349° |
| 2026-04-23 18:26 | -21.79520 | -47.19608 | 25649 ft | 483 kts | 349° |
| 2026-04-23 18:26 | -21.76190 | -47.20120 | 25791 ft | 484 kts | 350° |
| 2026-04-23 18:26 | -21.72846 | -47.20579 | 25923 ft | 485 kts | 351° |
| 2026-04-23 18:27 | -21.69488 | -47.21007 | 26065 ft | 487 kts | 351° |
| 2026-04-23 18:27 | -21.66122 | -47.21428 | 26206 ft | 487 kts | 351° |
| 2026-04-23 18:27 | -21.62748 | -47.21851 | 26341 ft | 488 kts | 351° |
| 2026-04-23 18:27 | -21.59375 | -47.22281 | 26477 ft | 489 kts | 351° |
| 2026-04-23 18:28 | -21.55997 | -47.22716 | 26601 ft | 490 kts | 351° |
| 2026-04-23 18:28 | -21.52611 | -47.23158 | 26739 ft | 491 kts | 351° |
| 2026-04-23 18:28 | -21.49216 | -47.23602 | 26871 ft | 492 kts | 351° |
| 2026-04-23 18:28 | -21.45817 | -47.24049 | 26992 ft | 493 kts | 350° |
| 2026-04-23 18:29 | -21.42410 | -47.24496 | 27132 ft | 493 kts | 350° |
| 2026-04-23 18:29 | -21.39003 | -47.24943 | 27249 ft | 494 kts | 351° |
| 2026-04-23 18:29 | -21.35582 | -47.25392 | 27362 ft | 496 kts | 351° |
| 2026-04-23 18:29 | -21.32164 | -47.25889 | 27482 ft | 497 kts | 349° |
| 2026-04-23 18:30 | -21.28745 | -47.26455 | 27623 ft | 497 kts | 348° |
| 2026-04-23 18:30 | -21.25332 | -47.27049 | 27753 ft | 497 kts | 348° |
| 2026-04-23 18:30 | -21.21913 | -47.27648 | 27870 ft | 499 kts | 348° |
| 2026-04-23 18:30 | -21.18483 | -47.28244 | 27993 ft | 500 kts | 348° |
| 2026-04-23 18:31 | -21.15049 | -47.28831 | 28116 ft | 500 kts | 349° |
| 2026-04-23 18:31 | -21.11600 | -47.29415 | 28228 ft | 502 kts | 349° |
| 2026-04-23 18:31 | -21.08154 | -47.29992 | 28334 ft | 503 kts | 349° |
| 2026-04-23 18:31 | -21.04693 | -47.30569 | 28444 ft | 504 kts | 349° |
| 2026-04-23 18:32 | -21.01225 | -47.31145 | 28550 ft | 504 kts | 349° |
| 2026-04-23 18:32 | -20.97757 | -47.31721 | 28677 ft | 505 kts | 349° |
| 2026-04-23 18:32 | -20.94284 | -47.32298 | 28777 ft | 506 kts | 349° |
| 2026-04-23 18:33 | -20.87311 | -47.33457 | 28963 ft | 508 kts | 349° |
| 2026-04-23 18:33 | -20.83810 | -47.34038 | 29070 ft | 509 kts | 349° |
| 2026-04-23 18:33 | -20.80312 | -47.34619 | 29179 ft | 510 kts | 349° |
| 2026-04-23 18:34 | -20.73290 | -47.35784 | 29350 ft | 512 kts | 349° |
| 2026-04-23 18:34 | -20.69779 | -47.36366 | 29483 ft | 511 kts | 349° |
| 2026-04-23 18:34 | -20.66257 | -47.36950 | 29574 ft | 513 kts | 349° |
| 2026-04-23 18:35 | -20.59236 | -47.38112 | 29738 ft | 514 kts | 349° |
| 2026-04-23 18:35 | -20.55697 | -47.38695 | 29850 ft | 515 kts | 349° |
| 2026-04-23 18:35 | -20.52156 | -47.39243 | 30040 ft | 513 kts | 350° |
| 2026-04-23 18:35 | -20.48623 | -47.39768 | 30199 ft | 513 kts | 350° |
| 2026-04-23 18:36 | -20.45092 | -47.40286 | 30307 ft | 513 kts | 351° |
| 2026-04-23 18:36 | -20.38010 | -47.41330 | 30530 ft | 513 kts | 351° |
| 2026-04-23 18:36 | -20.34478 | -47.41856 | 30656 ft | 513 kts | 351° |
| 2026-04-23 18:37 | -20.30943 | -47.42385 | 30797 ft | 513 kts | 351° |
| 2026-04-23 18:37 | -20.27406 | -47.42917 | 30943 ft | 513 kts | 351° |
| 2026-04-23 18:37 | -20.23877 | -47.43448 | 31087 ft | 513 kts | 351° |
| 2026-04-23 18:37 | -20.20339 | -47.43981 | 31231 ft | 513 kts | 351° |
| 2026-04-23 18:38 | -20.16808 | -47.44513 | 31355 ft | 513 kts | 351° |
| 2026-04-23 18:38 | -20.13274 | -47.45043 | 31501 ft | 513 kts | 351° |
| 2026-04-23 18:38 | -20.09742 | -47.45573 | 31641 ft | 513 kts | 351° |
| 2026-04-23 18:38 | -20.06216 | -47.46101 | 31813 ft | 512 kts | 351° |
| 2026-04-23 18:39 | -20.02685 | -47.46630 | 31958 ft | 512 kts | 351° |
| 2026-04-23 18:39 | -19.99162 | -47.47157 | 32121 ft | 512 kts | 351° |
| 2026-04-23 18:39 | -19.95637 | -47.47685 | 32269 ft | 512 kts | 351° |
| 2026-04-23 18:39 | -19.92105 | -47.48214 | 32386 ft | 512 kts | 351° |
| 2026-04-23 18:40 | -19.88585 | -47.48741 | 32565 ft | 512 kts | 351° |
| 2026-04-23 18:40 | -19.85058 | -47.49268 | 32747 ft | 511 kts | 351° |
| 2026-04-23 18:40 | -19.81541 | -47.49794 | 32908 ft | 511 kts | 351° |
| 2026-04-23 18:40 | -19.78021 | -47.50320 | 33069 ft | 511 kts | 351° |
| 2026-04-23 18:41 | -19.74501 | -47.50846 | 33246 ft | 510 kts | 351° |
| 2026-04-23 18:41 | -19.70988 | -47.51370 | 33389 ft | 511 kts | 352° |
| 2026-04-23 18:41 | -19.67462 | -47.51887 | 33553 ft | 511 kts | 352° |
| 2026-04-23 18:41 | -19.63949 | -47.52398 | 33718 ft | 510 kts | 352° |
| 2026-04-23 18:42 | -19.60427 | -47.52909 | 33924 ft | 510 kts | 352° |
| 2026-04-23 18:42 | -19.56919 | -47.53419 | 34083 ft | 510 kts | 352° |
| 2026-04-23 18:42 | -19.53402 | -47.53931 | 34251 ft | 509 kts | 352° |
| 2026-04-23 18:42 | -19.49948 | -47.54434 | 34424 ft | 508 kts | 352° |
| 2026-04-23 18:43 | -19.46448 | -47.54945 | 34586 ft | 507 kts | 352° |
| 2026-04-23 18:43 | -19.42957 | -47.55454 | 34739 ft | 507 kts | 352° |
| 2026-04-23 18:43 | -19.39456 | -47.55965 | 34900 ft | 507 kts | 352° |
| 2026-04-23 18:43 | -19.35964 | -47.56474 | 35009 ft | 508 kts | 352° |
| 2026-04-23 18:44 | -19.32451 | -47.56987 | 35030 ft | 511 kts | 352° |
| 2026-04-23 18:44 | -19.25390 | -47.58015 | 35031 ft | 512 kts | 352° |
| 2026-04-23 18:45 | -19.18331 | -47.59042 | 35031 ft | 512 kts | 352° |
| 2026-04-23 18:45 | -19.11274 | -47.60068 | 35031 ft | 512 kts | 352° |
| 2026-04-23 18:46 | -19.04222 | -47.61093 | 35033 ft | 512 kts | 352° |
| 2026-04-23 18:46 | -18.97167 | -47.62105 | 35032 ft | 512 kts | 352° |
| 2026-04-23 18:47 | -18.90105 | -47.63077 | 35022 ft | 512 kts | 352° |
| 2026-04-23 18:47 | -18.83034 | -47.64050 | 35023 ft | 512 kts | 352° |
| 2026-04-23 18:48 | -18.75971 | -47.65026 | 35020 ft | 512 kts | 352° |
| 2026-04-23 18:48 | -18.68904 | -47.66007 | 35016 ft | 512 kts | 352° |
| 2026-04-23 18:49 | -18.61845 | -47.66986 | 35012 ft | 512 kts | 352° |
| 2026-04-23 18:49 | -18.54781 | -47.67993 | 35012 ft | 512 kts | 352° |
| 2026-04-23 18:50 | -18.48925 | -47.68860 | 35011 ft | 511 kts | 352° |
| 2026-04-23 18:50 | -18.40692 | -47.70076 | 35007 ft | 511 kts | 352° |
| 2026-04-23 18:51 | -18.33699 | -47.71102 | 35006 ft | 511 kts | 352° |
| 2026-04-23 18:51 | -18.26662 | -47.72160 | 35001 ft | 511 kts | 352° |
| 2026-04-23 18:52 | -18.19644 | -47.73346 | 35001 ft | 510 kts | 351° |
| 2026-04-23 18:52 | -18.12643 | -47.74549 | 35002 ft | 510 kts | 351° |
| 2026-04-23 18:53 | -18.05637 | -47.75735 | 35003 ft | 510 kts | 352° |
| 2026-04-23 18:53 | -17.98627 | -47.76911 | 35001 ft | 509 kts | 352° |
| 2026-04-23 18:54 | -17.91639 | -47.78077 | 35000 ft | 508 kts | 352° |
| 2026-04-23 18:54 | -17.84654 | -47.79243 | 35003 ft | 508 kts | 352° |
| 2026-04-23 18:55 | -17.77666 | -47.80409 | 34997 ft | 508 kts | 352° |
| 2026-04-23 18:55 | -17.70686 | -47.81574 | 34998 ft | 508 kts | 352° |
| 2026-04-23 18:56 | -17.64849 | -47.82546 | 35000 ft | 507 kts | 352° |
| 2026-04-23 18:56 | -17.56745 | -47.83895 | 34999 ft | 507 kts | 352° |
| 2026-04-23 18:57 | -17.49768 | -47.85056 | 34999 ft | 507 kts | 352° |
| 2026-04-23 18:57 | -17.42795 | -47.86215 | 34992 ft | 507 kts | 352° |
| 2026-04-23 18:58 | -17.35820 | -47.87374 | 34994 ft | 508 kts | 352° |
| 2026-04-23 18:58 | -17.28847 | -47.88532 | 34993 ft | 507 kts | 352° |
| 2026-04-23 18:59 | -17.21878 | -47.89688 | 34991 ft | 507 kts | 352° |
| 2026-04-23 18:59 | -17.14904 | -47.90844 | 34990 ft | 507 kts | 353° |
| 2026-04-23 19:00 | -17.07928 | -47.91999 | 34991 ft | 507 kts | 352° |
| 2026-04-23 19:00 | -17.00957 | -47.93152 | 34994 ft | 507 kts | 352° |
| 2026-04-23 19:01 | -16.93988 | -47.94305 | 34989 ft | 507 kts | 352° |
| 2026-04-23 19:01 | -16.87016 | -47.95456 | 34987 ft | 507 kts | 352° |
| 2026-04-23 19:02 | -16.81225 | -47.96412 | 34988 ft | 507 kts | 352° |
| 2026-04-23 19:02 | -16.73087 | -47.97755 | 34981 ft | 507 kts | 352° |
| 2026-04-23 19:03 | -16.66160 | -47.98898 | 34981 ft | 507 kts | 352° |
| 2026-04-23 19:03 | -16.59150 | -48.00052 | 34983 ft | 507 kts | 352° |
| 2026-04-23 19:04 | -16.52233 | -48.01191 | 34983 ft | 506 kts | 352° |
| 2026-04-23 19:04 | -16.45275 | -48.02336 | 34982 ft | 506 kts | 352° |
| 2026-04-23 19:05 | -16.38311 | -48.03481 | 34984 ft | 506 kts | 352° |
| 2026-04-23 19:05 | -16.31352 | -48.04624 | 34988 ft | 506 kts | 352° |
| 2026-04-23 19:06 | -16.24396 | -48.05766 | 34986 ft | 506 kts | 353° |
| 2026-04-23 19:06 | -16.17440 | -48.06907 | 34985 ft | 506 kts | 353° |
| 2026-04-23 19:07 | -16.11651 | -48.07856 | 35013 ft | 506 kts | 353° |
| 2026-04-23 19:07 | -16.04696 | -48.08995 | 35039 ft | 506 kts | 353° |
| 2026-04-23 19:08 | -15.97734 | -48.10135 | 35054 ft | 506 kts | 353° |
| 2026-04-23 19:08 | -15.90782 | -48.11272 | 35060 ft | 506 kts | 353° |
| 2026-04-23 19:09 | -15.83821 | -48.12410 | 35055 ft | 506 kts | 353° |
| 2026-04-23 19:09 | -15.76856 | -48.13548 | 35042 ft | 506 kts | 353° |
| 2026-04-23 19:10 | -15.69900 | -48.14684 | 35020 ft | 506 kts | 353° |
| 2026-04-23 19:10 | -15.62942 | -48.15819 | 34989 ft | 506 kts | 353° |
| 2026-04-23 19:11 | -15.55984 | -48.16956 | 34980 ft | 506 kts | 352° |
| 2026-04-23 19:11 | -15.49252 | -48.19081 | 34968 ft | 509 kts | 335° |
| 2026-04-23 19:12 | -15.43428 | -48.23246 | 34961 ft | 512 kts | 320° |
| 2026-04-23 19:12 | -15.38145 | -48.28207 | 34960 ft | 513 kts | 318° |
| 2026-04-23 19:13 | -15.32945 | -48.33274 | 34946 ft | 513 kts | 318° |
| 2026-04-23 19:13 | -15.27724 | -48.38321 | 34950 ft | 513 kts | 319° |
| 2026-04-23 19:14 | -15.22481 | -48.43336 | 34946 ft | 513 kts | 319° |
| 2026-04-23 19:14 | -15.17266 | -48.48304 | 34941 ft | 513 kts | 319° |
| 2026-04-23 19:15 | -15.12015 | -48.53303 | 34944 ft | 513 kts | 319° |
| 2026-04-23 19:15 | -15.06758 | -48.58306 | 34936 ft | 513 kts | 319° |
| 2026-04-23 19:16 | -15.01229 | -48.62930 | 34941 ft | 510 kts | 330° |
| 2026-04-23 19:16 | -14.95084 | -48.66586 | 34928 ft | 509 kts | 333° |
| 2026-04-23 19:17 | -14.85719 | -48.71771 | 34929 ft | 509 kts | 334° |
| 2026-04-23 19:17 | -14.79466 | -48.75223 | 34924 ft | 509 kts | 334° |
| 2026-04-23 19:18 | -14.73225 | -48.78688 | 34922 ft | 509 kts | 334° |
| 2026-04-23 19:18 | -14.66982 | -48.82160 | 34920 ft | 509 kts | 333° |
| 2026-04-23 19:19 | -14.57621 | -48.87365 | 34913 ft | 510 kts | 334° |
| 2026-04-23 19:20 | -14.48250 | -48.92567 | 34909 ft | 510 kts | 334° |
| 2026-04-23 19:20 | -14.41998 | -48.96034 | 34902 ft | 510 kts | 334° |
| 2026-04-23 19:21 | -14.32622 | -49.01230 | 34906 ft | 510 kts | 334° |
| 2026-04-23 19:22 | -14.26371 | -49.04692 | 34906 ft | 510 kts | 334° |
| 2026-04-23 19:22 | -14.16998 | -49.09879 | 34901 ft | 510 kts | 334° |
| 2026-04-23 19:23 | -14.10748 | -49.13335 | 34901 ft | 510 kts | 334° |
| 2026-04-23 19:24 | -14.01377 | -49.18512 | 34896 ft | 510 kts | 334° |
| 2026-04-23 19:24 | -13.92004 | -49.23685 | 34890 ft | 509 kts | 334° |
| 2026-04-23 19:25 | -13.79485 | -49.30587 | 34890 ft | 511 kts | 334° |
| 2026-04-23 19:26 | -13.70090 | -49.35763 | 34884 ft | 510 kts | 334° |
| 2026-04-23 19:27 | -13.54421 | -49.44382 | 34882 ft | 512 kts | 334° |
| 2026-04-23 19:28 | -13.41905 | -49.51257 | 34876 ft | 512 kts | 334° |
| 2026-04-23 19:29 | -13.32469 | -49.56436 | 34878 ft | 513 kts | 335° |
| 2026-04-23 19:30 | -13.23028 | -49.61612 | 34882 ft | 513 kts | 335° |
| 2026-04-23 19:31 | -13.13583 | -49.66787 | 34880 ft | 513 kts | 335° |
| 2026-04-23 19:31 | -13.07277 | -49.70239 | 34880 ft | 514 kts | 335° |
| 2026-04-23 19:32 | -13.00960 | -49.73694 | 34880 ft | 514 kts | 335° |
| 2026-04-23 19:32 | -12.94648 | -49.77146 | 34878 ft | 514 kts | 335° |
| 2026-04-23 19:33 | -12.88333 | -49.80597 | 34877 ft | 514 kts | 335° |
| 2026-04-23 19:33 | -12.78848 | -49.85776 | 34877 ft | 515 kts | 335° |
| 2026-04-23 19:34 | -12.72526 | -49.89225 | 34876 ft | 515 kts | 335° |
| 2026-04-23 19:35 | -12.63034 | -49.94402 | 34872 ft | 516 kts | 335° |
| 2026-04-23 19:35 | -12.56695 | -49.97855 | 34870 ft | 516 kts | 335° |
| 2026-04-23 19:36 | -12.50355 | -50.01309 | 34876 ft | 516 kts | 335° |
| 2026-04-23 19:36 | -12.44063 | -50.04734 | 34867 ft | 516 kts | 335° |
| 2026-04-23 19:37 | -12.37725 | -50.08181 | 34868 ft | 516 kts | 335° |
| 2026-04-23 19:37 | -12.31386 | -50.11627 | 34864 ft | 516 kts | 335° |
| 2026-04-23 19:38 | -12.25041 | -50.15075 | 34866 ft | 516 kts | 335° |
| 2026-04-23 19:38 | -12.18692 | -50.18523 | 34867 ft | 516 kts | 335° |
| 2026-04-23 19:39 | -12.12310 | -50.21988 | 34865 ft | 516 kts | 335° |
| 2026-04-23 19:39 | -12.06007 | -50.25407 | 34870 ft | 516 kts | 335° |
| 2026-04-23 19:40 | -11.99659 | -50.28848 | 34862 ft | 516 kts | 335° |
| 2026-04-23 19:40 | -11.93314 | -50.32287 | 34861 ft | 516 kts | 335° |
| 2026-04-23 19:41 | -11.86970 | -50.35723 | 34860 ft | 516 kts | 335° |
| 2026-04-23 19:41 | -11.80626 | -50.39157 | 34857 ft | 516 kts | 335° |
| 2026-04-23 19:42 | -11.74275 | -50.42593 | 34855 ft | 516 kts | 335° |
| 2026-04-23 19:42 | -11.67936 | -50.46022 | 34856 ft | 515 kts | 335° |
| 2026-04-23 19:43 | -11.61598 | -50.49447 | 34852 ft | 515 kts | 336° |
| 2026-04-23 19:43 | -11.55258 | -50.52871 | 34856 ft | 516 kts | 336° |
| 2026-04-23 19:44 | -11.48913 | -50.56297 | 34857 ft | 516 kts | 336° |
| 2026-04-23 19:44 | -11.42564 | -50.59724 | 34858 ft | 516 kts | 336° |
| 2026-04-23 19:45 | -11.36212 | -50.63150 | 34860 ft | 516 kts | 336° |
| 2026-04-23 19:45 | -11.29862 | -50.66573 | 34856 ft | 516 kts | 336° |
| 2026-04-23 19:46 | -11.23510 | -50.69996 | 34855 ft | 516 kts | 336° |
| 2026-04-23 19:46 | -11.17165 | -50.73413 | 34856 ft | 516 kts | 336° |
| 2026-04-23 19:47 | -11.11885 | -50.76255 | 34859 ft | 516 kts | 336° |
| 2026-04-23 19:47 | -11.04466 | -50.80247 | 34856 ft | 516 kts | 336° |
| 2026-04-23 19:48 | -10.98114 | -50.83663 | 34856 ft | 516 kts | 336° |
| 2026-04-23 19:48 | -10.91773 | -50.87071 | 34856 ft | 516 kts | 336° |
| 2026-04-23 19:49 | -10.85424 | -50.90482 | 34856 ft | 516 kts | 336° |
| 2026-04-23 19:49 | -10.79128 | -50.93863 | 34856 ft | 515 kts | 336° |
| 2026-04-23 19:50 | -10.72795 | -50.97263 | 34863 ft | 514 kts | 336° |
| 2026-04-23 19:50 | -10.66464 | -51.00658 | 34866 ft | 514 kts | 336° |
| 2026-04-23 19:51 | -10.60138 | -51.04050 | 34863 ft | 514 kts | 336° |
| 2026-04-23 19:51 | -10.53804 | -51.07445 | 34867 ft | 514 kts | 336° |
| 2026-04-23 19:52 | -10.48376 | -51.09960 | 34867 ft | 511 kts | 341° |
| 2026-04-23 19:52 | -10.41818 | -51.12723 | 34867 ft | 510 kts | 342° |
| 2026-04-23 19:53 | -10.35245 | -51.15437 | 34869 ft | 510 kts | 342° |
| 2026-04-23 19:53 | -10.28668 | -51.18152 | 34873 ft | 510 kts | 341° |
| 2026-04-23 19:54 | -10.22134 | -51.20856 | 34871 ft | 510 kts | 341° |
| 2026-04-23 19:54 | -10.15566 | -51.23578 | 34873 ft | 510 kts | 341° |
| 2026-04-23 19:55 | -10.08990 | -51.26302 | 34874 ft | 510 kts | 341° |
| 2026-04-23 19:55 | -10.02422 | -51.29022 | 34884 ft | 510 kts | 341° |
| 2026-04-23 19:56 | -9.95856 | -51.31739 | 34882 ft | 509 kts | 341° |
| 2026-04-23 19:56 | -9.89299 | -51.34452 | 34882 ft | 509 kts | 341° |
| 2026-04-23 19:57 | -9.82748 | -51.37160 | 34885 ft | 508 kts | 341° |
| 2026-04-23 19:57 | -9.76201 | -51.39866 | 34885 ft | 508 kts | 341° |
| 2026-04-23 19:58 | -9.69660 | -51.42569 | 34884 ft | 508 kts | 341° |
| 2026-04-23 19:58 | -9.63117 | -51.45271 | 34882 ft | 508 kts | 341° |
| 2026-04-23 19:59 | -9.56566 | -51.47975 | 34881 ft | 508 kts | 341° |
| 2026-04-23 19:59 | -9.50017 | -51.50677 | 34881 ft | 508 kts | 341° |
| 2026-04-23 20:00 | -9.43470 | -51.53376 | 34877 ft | 507 kts | 341° |
| 2026-04-23 20:00 | -9.36931 | -51.56073 | 34877 ft | 507 kts | 341° |
| 2026-04-23 20:01 | -9.30404 | -51.58763 | 34875 ft | 506 kts | 341° |
| 2026-04-23 20:01 | -9.23874 | -51.61454 | 34873 ft | 506 kts | 341° |
| 2026-04-23 20:02 | -9.17349 | -51.64140 | 34870 ft | 506 kts | 341° |
| 2026-04-23 20:02 | -9.10820 | -51.66827 | 34873 ft | 506 kts | 341° |
| 2026-04-23 20:03 | -9.04292 | -51.69514 | 34869 ft | 506 kts | 341° |
| 2026-04-23 20:03 | -8.97762 | -51.72199 | 34870 ft | 507 kts | 341° |
| 2026-04-23 20:04 | -8.91227 | -51.74885 | 34874 ft | 507 kts | 340° |
| 2026-04-23 20:04 | -8.84710 | -51.77563 | 34877 ft | 506 kts | 340° |
| 2026-04-23 20:05 | -8.78189 | -51.80242 | 34879 ft | 505 kts | 340° |
| 2026-04-23 20:05 | -8.71677 | -51.82917 | 34876 ft | 505 kts | 340° |
| 2026-04-23 20:06 | -8.65154 | -51.85594 | 34877 ft | 505 kts | 340° |
| 2026-04-23 20:06 | -8.58685 | -51.88250 | 34886 ft | 505 kts | 340° |
| 2026-04-23 20:07 | -8.52171 | -51.90922 | 34879 ft | 505 kts | 339° |
| 2026-04-23 20:07 | -8.45659 | -51.93592 | 34885 ft | 505 kts | 340° |
| 2026-04-23 20:08 | -8.39140 | -51.96264 | 34886 ft | 505 kts | 339° |
| 2026-04-23 20:08 | -8.32627 | -51.98932 | 34886 ft | 505 kts | 339° |
| 2026-04-23 20:09 | -8.26119 | -52.01598 | 34879 ft | 505 kts | 340° |
| 2026-04-23 20:09 | -8.19607 | -52.04265 | 34883 ft | 505 kts | 339° |
| 2026-04-23 20:10 | -8.14148 | -52.06499 | 34888 ft | 505 kts | 339° |
| 2026-04-23 20:10 | -8.06584 | -52.09594 | 34887 ft | 505 kts | 339° |
| 2026-04-23 20:11 | -8.00058 | -52.12263 | 34887 ft | 506 kts | 339° |
| 2026-04-23 20:11 | -7.93525 | -52.14935 | 34871 ft | 507 kts | 339° |
| 2026-04-23 20:12 | -7.86990 | -52.17606 | 34871 ft | 507 kts | 339° |
| 2026-04-23 20:12 | -7.80457 | -52.20275 | 34880 ft | 507 kts | 339° |
| 2026-04-23 20:13 | -7.73922 | -52.22944 | 34877 ft | 507 kts | 339° |
| 2026-04-23 20:13 | -7.67375 | -52.25618 | 34890 ft | 508 kts | 339° |
| 2026-04-23 20:14 | -7.60823 | -52.28292 | 34890 ft | 508 kts | 339° |
| 2026-04-23 20:14 | -7.54279 | -52.30962 | 34886 ft | 507 kts | 339° |
| 2026-04-23 20:15 | -7.47736 | -52.33631 | 34875 ft | 508 kts | 339° |
| 2026-04-23 20:15 | -7.41177 | -52.36306 | 34889 ft | 508 kts | 339° |
| 2026-04-23 20:16 | -7.34621 | -52.38979 | 34886 ft | 509 kts | 339° |
| 2026-04-23 20:16 | -7.28059 | -52.41652 | 34873 ft | 509 kts | 339° |
| 2026-04-23 20:17 | -7.21548 | -52.44305 | 34887 ft | 508 kts | 340° |
| 2026-04-23 20:17 | -7.14988 | -52.46977 | 34886 ft | 508 kts | 340° |
| 2026-04-23 20:18 | -7.08430 | -52.49647 | 34870 ft | 508 kts | 340° |
| 2026-04-23 20:18 | -7.01879 | -52.52313 | 34868 ft | 508 kts | 340° |
| 2026-04-23 20:19 | -6.95326 | -52.54980 | 34875 ft | 508 kts | 340° |
| 2026-04-23 20:19 | -6.88772 | -52.57646 | 34885 ft | 508 kts | 340° |
| 2026-04-23 20:20 | -6.82225 | -52.60307 | 34889 ft | 507 kts | 340° |
| 2026-04-23 20:20 | -6.75676 | -52.62970 | 34875 ft | 507 kts | 340° |
| 2026-04-23 20:21 | -6.69132 | -52.65629 | 34875 ft | 507 kts | 340° |
| 2026-04-23 20:21 | -6.62593 | -52.68286 | 34890 ft | 507 kts | 340° |
| 2026-04-23 20:22 | -6.56051 | -52.70944 | 34890 ft | 506 kts | 340° |
| 2026-04-23 20:22 | -6.49523 | -52.73595 | 34887 ft | 506 kts | 340° |
| 2026-04-23 20:23 | -6.42989 | -52.76247 | 34882 ft | 506 kts | 340° |
| 2026-04-23 20:23 | -6.36458 | -52.78898 | 34889 ft | 506 kts | 340° |
| 2026-04-23 20:24 | -6.29930 | -52.81546 | 34892 ft | 506 kts | 340° |
| 2026-04-23 20:24 | -6.23405 | -52.84193 | 34889 ft | 506 kts | 340° |
| 2026-04-23 20:25 | -6.16875 | -52.86840 | 34876 ft | 506 kts | 340° |
| 2026-04-23 20:25 | -6.10350 | -52.89485 | 34891 ft | 506 kts | 340° |
| 2026-04-23 20:26 | -6.03827 | -52.92129 | 34893 ft | 505 kts | 340° |
| 2026-04-23 20:26 | -5.97318 | -52.94767 | 34879 ft | 504 kts | 340° |
| 2026-04-23 20:27 | -5.90822 | -52.97398 | 34895 ft | 504 kts | 340° |
| 2026-04-23 20:27 | -5.84320 | -53.00031 | 34896 ft | 503 kts | 340° |
| 2026-04-23 20:28 | -5.77873 | -53.02641 | 34889 ft | 503 kts | 340° |
| 2026-04-23 20:28 | -5.71379 | -53.05270 | 34888 ft | 503 kts | 339° |
| 2026-04-23 20:29 | -5.64890 | -53.07895 | 34877 ft | 503 kts | 339° |
| 2026-04-23 20:29 | -5.58408 | -53.10518 | 34900 ft | 503 kts | 339° |
| 2026-04-23 20:30 | -5.51915 | -53.13145 | 34897 ft | 502 kts | 339° |
| 2026-04-23 20:30 | -5.42188 | -53.17077 | 34895 ft | 502 kts | 339° |
| 2026-04-23 20:31 | -5.35715 | -53.19694 | 34896 ft | 502 kts | 339° |
| 2026-04-23 20:31 | -5.29238 | -53.22312 | 34893 ft | 502 kts | 339° |
| 2026-04-23 20:32 | -5.22766 | -53.24927 | 34896 ft | 502 kts | 339° |
| 2026-04-23 20:32 | -5.16285 | -53.27545 | 34897 ft | 502 kts | 339° |
| 2026-04-23 20:33 | -5.09794 | -53.30167 | 34896 ft | 503 kts | 339° |
| 2026-04-23 20:33 | -5.03298 | -53.32790 | 34899 ft | 503 kts | 339° |
| 2026-04-23 20:34 | -4.96796 | -53.35414 | 34897 ft | 503 kts | 339° |
| 2026-04-23 20:34 | -4.90343 | -53.38019 | 34900 ft | 503 kts | 339° |
| 2026-04-23 20:35 | -4.83801 | -53.40659 | 34900 ft | 505 kts | 340° |
| 2026-04-23 20:35 | -4.77326 | -53.43272 | 34899 ft | 505 kts | 340° |
| 2026-04-23 20:36 | -4.70801 | -53.45903 | 34898 ft | 505 kts | 340° |
| 2026-04-23 20:36 | -4.64285 | -53.48531 | 34902 ft | 505 kts | 340° |
| 2026-04-23 20:37 | -4.57758 | -53.51163 | 34898 ft | 505 kts | 340° |
| 2026-04-23 20:37 | -4.51218 | -53.53800 | 34903 ft | 507 kts | 340° |
| 2026-04-23 20:38 | -4.44661 | -53.56442 | 34902 ft | 508 kts | 340° |
| 2026-04-23 20:38 | -4.39215 | -53.58637 | 34907 ft | 508 kts | 340° |
| 2026-04-23 20:39 | -4.32650 | -53.61258 | 34906 ft | 507 kts | 341° |
| 2026-04-23 20:39 | -4.26013 | -53.63638 | 34905 ft | 507 kts | 343° |
| 2026-04-23 20:40 | -4.19352 | -53.65951 | 34907 ft | 507 kts | 342° |
| 2026-04-23 20:40 | -4.12698 | -53.68295 | 34908 ft | 507 kts | 342° |
| 2026-04-23 20:41 | -4.06057 | -53.70662 | 34910 ft | 507 kts | 342° |
| 2026-04-23 20:41 | -3.99416 | -53.73037 | 34912 ft | 507 kts | 342° |
| 2026-04-23 20:42 | -3.92768 | -53.75414 | 34909 ft | 507 kts | 342° |
| 2026-04-23 20:42 | -3.86124 | -53.77788 | 34912 ft | 507 kts | 342° |
| 2026-04-23 20:43 | -3.79475 | -53.80163 | 34910 ft | 507 kts | 342° |
| 2026-04-23 20:43 | -3.72828 | -53.82536 | 34909 ft | 507 kts | 342° |
| 2026-04-23 20:44 | -3.66179 | -53.84910 | 34913 ft | 508 kts | 342° |
| 2026-04-23 20:44 | -3.59513 | -53.87289 | 34912 ft | 509 kts | 342° |
| 2026-04-23 20:45 | -3.52831 | -53.89674 | 34916 ft | 509 kts | 342° |
| 2026-04-23 20:45 | -3.46158 | -53.92056 | 34913 ft | 509 kts | 342° |
| 2026-04-23 20:46 | -3.39517 | -53.94426 | 34914 ft | 510 kts | 342° |
| 2026-04-23 20:46 | -3.32841 | -53.96808 | 34914 ft | 510 kts | 342° |
| 2026-04-23 20:47 | -3.26161 | -53.99191 | 34916 ft | 510 kts | 342° |
| 2026-04-23 20:47 | -3.19479 | -54.01573 | 34918 ft | 510 kts | 342° |
| 2026-04-23 20:48 | -3.12804 | -54.03954 | 34915 ft | 510 kts | 342° |
| 2026-04-23 20:48 | -3.06112 | -54.06340 | 34917 ft | 509 kts | 342° |
| 2026-04-23 20:49 | -2.99442 | -54.08718 | 34916 ft | 509 kts | 342° |
| 2026-04-23 20:49 | -2.92777 | -54.11094 | 34918 ft | 509 kts | 342° |
| 2026-04-23 20:50 | -2.86105 | -54.13472 | 34921 ft | 509 kts | 342° |
| 2026-04-23 20:50 | -2.79435 | -54.15849 | 34917 ft | 509 kts | 342° |
| 2026-04-23 20:51 | -2.72756 | -54.18228 | 34917 ft | 510 kts | 342° |
| 2026-04-23 20:51 | -2.66073 | -54.20609 | 34916 ft | 510 kts | 342° |
| 2026-04-23 20:52 | -2.59382 | -54.22994 | 34914 ft | 510 kts | 342° |
| 2026-04-23 20:52 | -2.52696 | -54.25375 | 34915 ft | 510 kts | 341° |
| 2026-04-23 20:53 | -2.46018 | -54.27754 | 34910 ft | 509 kts | 341° |
| 2026-04-23 20:53 | -2.39360 | -54.30125 | 34908 ft | 508 kts | 341° |
| 2026-04-23 20:54 | -2.32699 | -54.32497 | 34916 ft | 508 kts | 341° |
| 2026-04-23 20:54 | -2.26042 | -54.34867 | 34921 ft | 508 kts | 341° |
| 2026-04-23 20:55 | -2.19385 | -54.37237 | 34907 ft | 508 kts | 341° |
| 2026-04-23 20:55 | -2.12726 | -54.39608 | 34913 ft | 509 kts | 341° |
| 2026-04-23 20:56 | -2.06049 | -54.41985 | 34926 ft | 509 kts | 341° |
| 2026-04-23 20:56 | -1.99418 | -54.44345 | 34913 ft | 509 kts | 341° |
| 2026-04-23 20:57 | -1.92698 | -54.46737 | 34915 ft | 509 kts | 341° |
| 2026-04-23 20:57 | -1.86059 | -54.49099 | 34921 ft | 509 kts | 341° |
| 2026-04-23 20:58 | -1.79407 | -54.51466 | 34917 ft | 506 kts | 341° |
| 2026-04-23 20:58 | -1.72785 | -54.53823 | 34924 ft | 504 kts | 341° |
| 2026-04-23 20:59 | -1.66178 | -54.56173 | 34919 ft | 504 kts | 341° |
| 2026-04-23 20:59 | -1.59567 | -54.58525 | 34926 ft | 504 kts | 341° |
| 2026-04-23 21:00 | -1.52954 | -54.60878 | 34941 ft | 505 kts | 341° |
| 2026-04-23 21:00 | -1.46336 | -54.63232 | 34946 ft | 505 kts | 341° |
| 2026-04-23 21:01 | -1.39712 | -54.65588 | 34932 ft | 505 kts | 341° |
| 2026-04-23 21:01 | -1.33089 | -54.67944 | 34933 ft | 505 kts | 341° |
| 2026-04-23 21:02 | -1.26470 | -54.70298 | 34937 ft | 505 kts | 341° |
| 2026-04-23 21:02 | -1.19852 | -54.72651 | 34942 ft | 505 kts | 341° |
| 2026-04-23 21:03 | -1.13235 | -54.75004 | 34938 ft | 504 kts | 341° |
| 2026-04-23 21:03 | -1.06632 | -54.77352 | 34940 ft | 503 kts | 341° |
| 2026-04-23 21:04 | -1.00038 | -54.79697 | 34944 ft | 503 kts | 341° |
| 2026-04-23 21:04 | -0.93437 | -54.82044 | 34942 ft | 503 kts | 341° |
| 2026-04-23 21:05 | -0.86848 | -54.84387 | 34960 ft | 503 kts | 341° |
| 2026-04-23 21:05 | -0.80264 | -54.86728 | 34949 ft | 502 kts | 341° |
| 2026-04-23 21:06 | -0.73671 | -54.89072 | 34940 ft | 502 kts | 341° |
| 2026-04-23 21:06 | -0.67088 | -54.91412 | 34942 ft | 502 kts | 341° |
| 2026-04-23 21:07 | -0.60504 | -54.93753 | 34949 ft | 502 kts | 341° |
| 2026-04-23 21:07 | -0.53923 | -54.96093 | 34948 ft | 502 kts | 341° |
| 2026-04-23 21:08 | -0.47391 | -54.98415 | 34953 ft | 502 kts | 341° |
| 2026-04-23 21:08 | -0.40820 | -55.00750 | 34952 ft | 502 kts | 341° |
| 2026-04-23 21:09 | -0.34232 | -55.03093 | 34953 ft | 502 kts | 342° |
| 2026-04-23 21:09 | -0.27648 | -55.05433 | 34947 ft | 503 kts | 342° |
| 2026-04-23 21:10 | -0.21054 | -55.07776 | 34947 ft | 503 kts | 342° |
| 2026-04-23 21:10 | -0.14459 | -55.10121 | 34948 ft | 503 kts | 342° |
| 2026-04-23 21:11 | -0.07870 | -55.12463 | 34948 ft | 503 kts | 342° |
| 2026-04-23 21:11 | -0.01281 | -55.14805 | 34947 ft | 503 kts | 342° |
| 2026-04-23 21:12 | 0.05326 | -55.17153 | 34944 ft | 506 kts | 342° |
| 2026-04-23 21:12 | 0.11979 | -55.19517 | 34941 ft | 508 kts | 342° |
| 2026-04-23 21:13 | 0.18634 | -55.21884 | 34942 ft | 508 kts | 342° |
| 2026-04-23 21:13 | 0.25289 | -55.24250 | 34943 ft | 507 kts | 342° |
| 2026-04-23 21:14 | 0.31899 | -55.26599 | 34946 ft | 508 kts | 342° |
| 2026-04-23 21:14 | 0.38562 | -55.28967 | 34940 ft | 509 kts | 342° |
| 2026-04-23 21:15 | 0.45247 | -55.31344 | 34940 ft | 510 kts | 342° |
| 2026-04-23 21:15 | 0.51926 | -55.33719 | 34940 ft | 510 kts | 342° |
| 2026-04-23 21:16 | 0.58616 | -55.36096 | 34941 ft | 510 kts | 342° |
| 2026-04-23 21:16 | 0.65301 | -55.38472 | 34939 ft | 510 kts | 341° |
| 2026-04-23 21:17 | 0.71996 | -55.40852 | 34936 ft | 511 kts | 341° |
| 2026-04-23 21:17 | 0.78691 | -55.43233 | 34936 ft | 511 kts | 341° |
| 2026-04-23 21:18 | 0.85393 | -55.45616 | 34938 ft | 511 kts | 341° |
| 2026-04-23 21:18 | 0.92097 | -55.47999 | 34941 ft | 511 kts | 341° |
| 2026-04-23 21:19 | 0.98797 | -55.50381 | 34936 ft | 511 kts | 341° |
| 2026-04-23 21:19 | 1.05484 | -55.52760 | 34937 ft | 511 kts | 341° |
| 2026-04-23 21:20 | 1.12183 | -55.55142 | 34939 ft | 511 kts | 341° |
| 2026-04-23 21:20 | 1.18887 | -55.57526 | 34937 ft | 511 kts | 341° |
| 2026-04-23 21:21 | 1.25592 | -55.59910 | 34937 ft | 511 kts | 341° |
| 2026-04-23 21:21 | 1.32289 | -55.62291 | 34937 ft | 511 kts | 341° |
| 2026-04-23 21:22 | 1.38987 | -55.64674 | 34947 ft | 511 kts | 341° |
| 2026-04-23 21:22 | 1.45676 | -55.67053 | 34943 ft | 511 kts | 341° |
| 2026-04-23 21:23 | 1.52376 | -55.69437 | 34937 ft | 511 kts | 341° |
| 2026-04-23 21:23 | 1.59063 | -55.71815 | 34939 ft | 511 kts | 341° |
| 2026-04-23 21:24 | 1.65759 | -55.74197 | 34940 ft | 510 kts | 341° |
| 2026-04-23 21:24 | 1.71313 | -55.76173 | 34942 ft | 510 kts | 341° |
| 2026-04-23 21:25 | 1.78005 | -55.78555 | 34938 ft | 510 kts | 341° |
| 2026-04-23 21:25 | 1.84703 | -55.80939 | 34942 ft | 511 kts | 341° |
| 2026-04-23 21:26 | 1.91410 | -55.83326 | 34941 ft | 512 kts | 341° |
| 2026-04-23 21:26 | 1.98113 | -55.85711 | 34940 ft | 512 kts | 341° |
| 2026-04-23 21:27 | 2.04828 | -55.88101 | 34942 ft | 512 kts | 341° |
| 2026-04-23 21:27 | 2.11540 | -55.90490 | 34944 ft | 512 kts | 341° |
| 2026-04-23 21:28 | 2.18248 | -55.92878 | 34946 ft | 512 kts | 341° |
| 2026-04-23 21:28 | 2.24794 | -55.95699 | 34946 ft | 514 kts | 334° |
| 2026-04-23 21:29 | 2.31182 | -55.98946 | 34950 ft | 516 kts | 333° |
| 2026-04-23 21:29 | 2.37556 | -56.02270 | 34948 ft | 517 kts | 333° |
| 2026-04-23 21:30 | 2.43889 | -56.05574 | 34949 ft | 517 kts | 333° |
| 2026-04-23 21:30 | 2.50270 | -56.08891 | 34951 ft | 517 kts | 333° |
| 2026-04-23 21:31 | 2.56646 | -56.12199 | 34948 ft | 516 kts | 333° |
| 2026-04-23 21:31 | 2.63019 | -56.15505 | 34949 ft | 516 kts | 333° |
| 2026-04-23 21:32 | 2.69387 | -56.18809 | 34946 ft | 516 kts | 333° |
| 2026-04-23 21:32 | 2.75753 | -56.22113 | 34947 ft | 515 kts | 333° |
| 2026-04-23 21:33 | 2.82115 | -56.25414 | 34944 ft | 515 kts | 333° |
| 2026-04-23 21:33 | 2.88487 | -56.28722 | 34943 ft | 516 kts | 333° |
| 2026-04-23 21:34 | 2.94848 | -56.32025 | 34946 ft | 515 kts | 333° |
| 2026-04-23 21:34 | 3.01196 | -56.35322 | 34947 ft | 514 kts | 333° |
| 2026-04-23 21:35 | 3.07543 | -56.38618 | 34948 ft | 513 kts | 333° |
| 2026-04-23 21:35 | 3.13883 | -56.41910 | 34946 ft | 514 kts | 333° |
| 2026-04-23 21:36 | 3.23395 | -56.46851 | 34945 ft | 513 kts | 333° |
| 2026-04-23 21:37 | 3.29726 | -56.50140 | 34946 ft | 513 kts | 333° |
| 2026-04-23 21:37 | 3.36055 | -56.53429 | 34943 ft | 513 kts | 333° |
| 2026-04-23 21:38 | 3.42382 | -56.56717 | 34944 ft | 513 kts | 333° |
| 2026-04-23 21:38 | 3.48711 | -56.60008 | 34943 ft | 512 kts | 333° |
| 2026-04-23 21:39 | 3.55037 | -56.63297 | 34943 ft | 513 kts | 333° |
| 2026-04-23 21:39 | 3.61382 | -56.66595 | 34947 ft | 514 kts | 333° |
| 2026-04-23 21:40 | 3.67738 | -56.69900 | 34947 ft | 514 kts | 333° |
| 2026-04-23 21:40 | 3.74089 | -56.73203 | 34943 ft | 514 kts | 333° |
| 2026-04-23 21:41 | 3.80438 | -56.76506 | 34940 ft | 514 kts | 333° |
| 2026-04-23 21:41 | 3.86785 | -56.79809 | 34941 ft | 515 kts | 333° |
| 2026-04-23 21:42 | 3.93155 | -56.83123 | 34943 ft | 516 kts | 333° |
| 2026-04-23 21:42 | 3.99525 | -56.86439 | 34938 ft | 515 kts | 333° |
| 2026-04-23 21:43 | 4.05838 | -56.89725 | 34938 ft | 515 kts | 333° |
| 2026-04-23 21:43 | 4.12195 | -56.93035 | 34938 ft | 515 kts | 333° |
| 2026-04-23 21:44 | 4.18559 | -56.96349 | 34938 ft | 516 kts | 333° |
| 2026-04-23 21:44 | 4.24936 | -56.99670 | 34942 ft | 517 kts | 333° |
| 2026-04-23 21:45 | 4.31323 | -57.02997 | 34940 ft | 517 kts | 333° |
| 2026-04-23 21:45 | 4.37709 | -57.06324 | 34939 ft | 517 kts | 333° |
| 2026-04-23 21:46 | 4.44094 | -57.09652 | 34941 ft | 517 kts | 333° |
| 2026-04-23 21:46 | 4.50476 | -57.12978 | 34938 ft | 517 kts | 333° |
| 2026-04-23 21:47 | 4.56855 | -57.16303 | 34937 ft | 517 kts | 333° |
| 2026-04-23 21:47 | 4.63235 | -57.19630 | 34935 ft | 517 kts | 333° |
| 2026-04-23 21:48 | 4.69576 | -57.22937 | 34936 ft | 517 kts | 333° |
| 2026-04-23 21:48 | 4.75953 | -57.26264 | 34933 ft | 517 kts | 333° |
| 2026-04-23 21:49 | 4.82334 | -57.29593 | 34931 ft | 517 kts | 333° |
| 2026-04-23 21:49 | 4.88731 | -57.32931 | 34932 ft | 519 kts | 333° |
| 2026-04-23 21:50 | 4.95143 | -57.36279 | 34933 ft | 519 kts | 333° |
| 2026-04-23 21:50 | 5.01551 | -57.39624 | 34932 ft | 520 kts | 332° |
| 2026-04-23 21:51 | 5.08080 | -57.42735 | 34930 ft | 520 kts | 337° |
| 2026-04-23 21:51 | 5.14790 | -57.45471 | 34934 ft | 520 kts | 338° |
| 2026-04-23 21:52 | 5.21507 | -57.48215 | 34928 ft | 522 kts | 338° |
| 2026-04-23 21:52 | 5.28218 | -57.51034 | 34921 ft | 523 kts | 337° |
| 2026-04-23 21:53 | 5.34908 | -57.53882 | 34920 ft | 523 kts | 337° |
| 2026-04-23 21:53 | 5.41599 | -57.56737 | 34924 ft | 523 kts | 337° |
| 2026-04-23 21:54 | 5.48297 | -57.59593 | 34923 ft | 523 kts | 337° |
| 2026-04-23 21:54 | 5.54989 | -57.62445 | 34920 ft | 523 kts | 337° |
| 2026-04-23 21:55 | 5.61677 | -57.65295 | 34920 ft | 523 kts | 337° |
| 2026-04-23 21:55 | 5.68351 | -57.68141 | 34919 ft | 519 kts | 337° |
| 2026-04-23 21:56 | 5.74991 | -57.70972 | 34913 ft | 518 kts | 338° |
| 2026-04-23 21:56 | 5.81619 | -57.73798 | 34911 ft | 518 kts | 337° |
| 2026-04-23 21:57 | 5.88259 | -57.76630 | 34912 ft | 519 kts | 337° |
| 2026-04-23 21:57 | 5.94866 | -57.79450 | 34911 ft | 519 kts | 337° |
| 2026-04-23 21:58 | 6.01514 | -57.82287 | 34908 ft | 519 kts | 337° |
| 2026-04-23 21:58 | 6.08157 | -57.85124 | 34906 ft | 519 kts | 337° |
| 2026-04-23 21:59 | 6.14807 | -57.87964 | 34905 ft | 519 kts | 337° |
| 2026-04-23 21:59 | 6.21454 | -57.90803 | 34907 ft | 519 kts | 337° |
| 2026-04-23 22:00 | 6.31419 | -57.95062 | 34907 ft | 518 kts | 337° |
| 2026-04-23 22:00 | 6.38045 | -57.97895 | 34909 ft | 518 kts | 337° |
| 2026-04-23 22:01 | 6.44676 | -58.00730 | 34905 ft | 518 kts | 337° |
| 2026-04-23 22:01 | 6.51303 | -58.03565 | 34898 ft | 517 kts | 337° |
| 2026-04-23 22:02 | 6.57926 | -58.06399 | 34892 ft | 517 kts | 337° |
| 2026-04-23 22:02 | 6.64543 | -58.09231 | 34888 ft | 517 kts | 337° |
| 2026-04-23 22:03 | 6.71167 | -58.12066 | 34884 ft | 517 kts | 337° |
| 2026-04-23 22:03 | 6.77791 | -58.14903 | 34901 ft | 517 kts | 337° |
| 2026-04-23 22:04 | 6.84408 | -58.17737 | 34894 ft | 517 kts | 337° |
| 2026-04-23 22:04 | 6.91029 | -58.20574 | 34898 ft | 517 kts | 337° |
| 2026-04-23 22:05 | 6.97638 | -58.23407 | 34896 ft | 516 kts | 337° |
| 2026-04-23 22:05 | 7.04245 | -58.26240 | 34904 ft | 516 kts | 337° |
| 2026-04-23 22:06 | 7.10856 | -58.29075 | 34902 ft | 516 kts | 337° |
| 2026-04-23 22:06 | 7.17470 | -58.31913 | 34911 ft | 517 kts | 337° |
| 2026-04-23 22:07 | 7.24056 | -58.34739 | 34910 ft | 518 kts | 337° |
| 2026-04-23 22:07 | 7.30731 | -58.37605 | 34910 ft | 518 kts | 337° |
| 2026-04-23 22:08 | 7.37313 | -58.40431 | 34910 ft | 518 kts | 337° |
| 2026-04-23 22:08 | 7.43983 | -58.43297 | 34921 ft | 518 kts | 337° |
| 2026-04-23 22:09 | 7.50617 | -58.46147 | 34925 ft | 519 kts | 337° |
| 2026-04-23 22:09 | 7.57221 | -58.48987 | 34925 ft | 520 kts | 337° |
| 2026-04-23 22:10 | 7.63882 | -58.51851 | 34921 ft | 520 kts | 337° |
| 2026-04-23 22:10 | 7.70542 | -58.54716 | 34929 ft | 520 kts | 337° |
| 2026-04-23 22:11 | 7.77199 | -58.57580 | 34929 ft | 520 kts | 337° |
| 2026-04-23 22:11 | 7.83857 | -58.60446 | 34926 ft | 520 kts | 337° |
| 2026-04-23 22:12 | 7.89441 | -58.62850 | 34930 ft | 521 kts | 337° |
| 2026-04-23 22:12 | 7.96057 | -58.65700 | 34929 ft | 521 kts | 337° |
| 2026-04-23 22:13 | 8.02716 | -58.68569 | 34926 ft | 521 kts | 337° |
| 2026-04-23 22:13 | 8.09378 | -58.71441 | 34928 ft | 521 kts | 337° |
| 2026-04-23 22:14 | 8.16047 | -58.74315 | 34929 ft | 523 kts | 336° |
| 2026-04-23 22:14 | 8.22755 | -58.77209 | 34927 ft | 525 kts | 336° |
| 2026-04-23 22:15 | 8.29466 | -58.80105 | 34928 ft | 525 kts | 336° |
| 2026-04-23 22:15 | 8.36178 | -58.83002 | 34926 ft | 525 kts | 336° |
| 2026-04-23 22:16 | 8.42894 | -58.85902 | 34931 ft | 525 kts | 336° |
| 2026-04-23 22:16 | 8.49601 | -58.88798 | 34932 ft | 524 kts | 336° |
| 2026-04-23 22:17 | 8.56304 | -58.91695 | 34928 ft | 524 kts | 336° |
| 2026-04-23 22:17 | 8.63006 | -58.94593 | 34928 ft | 524 kts | 336° |
| 2026-04-23 22:18 | 8.69712 | -58.97493 | 34931 ft | 524 kts | 336° |
| 2026-04-23 22:18 | 8.76412 | -59.00392 | 34931 ft | 524 kts | 336° |
| 2026-04-23 22:19 | 8.83103 | -59.03287 | 34933 ft | 522 kts | 335° |
| 2026-04-23 22:19 | 8.89792 | -59.06184 | 34928 ft | 523 kts | 335° |
| 2026-04-23 22:20 | 8.96547 | -59.08934 | 34930 ft | 524 kts | 340° |
| 2026-04-23 22:20 | 9.03488 | -59.11194 | 34929 ft | 524 kts | 342° |
| 2026-04-23 22:21 | 9.10453 | -59.13409 | 34936 ft | 524 kts | 341° |
| 2026-04-23 22:21 | 9.17348 | -59.15685 | 34928 ft | 525 kts | 341° |
| 2026-04-23 22:22 | 9.24280 | -59.18022 | 34929 ft | 525 kts | 341° |
| 2026-04-23 22:22 | 9.31205 | -59.20368 | 34930 ft | 525 kts | 341° |
| 2026-04-23 22:23 | 9.38137 | -59.22715 | 34929 ft | 525 kts | 341° |
| 2026-04-23 22:23 | 9.45066 | -59.25060 | 34932 ft | 525 kts | 341° |
| 2026-04-23 22:24 | 9.51991 | -59.27403 | 34929 ft | 525 kts | 341° |
| 2026-04-23 22:24 | 9.58920 | -59.29749 | 34931 ft | 525 kts | 341° |
| 2026-04-23 22:25 | 9.65850 | -59.32096 | 34930 ft | 525 kts | 341° |
| 2026-04-23 22:25 | 9.72788 | -59.34448 | 34930 ft | 526 kts | 341° |
| 2026-04-23 22:26 | 9.79729 | -59.36800 | 34932 ft | 526 kts | 341° |
| 2026-04-23 22:26 | 9.86673 | -59.39155 | 34929 ft | 527 kts | 341° |
| 2026-04-23 22:27 | 9.93632 | -59.41515 | 34930 ft | 527 kts | 341° |
| 2026-04-23 22:27 | 10.00588 | -59.43877 | 34931 ft | 527 kts | 341° |
| 2026-04-23 22:28 | 10.07540 | -59.46237 | 34931 ft | 527 kts | 341° |
| 2026-04-23 22:28 | 10.14488 | -59.48597 | 34930 ft | 524 kts | 341° |
| 2026-04-23 22:29 | 10.21380 | -59.50939 | 34934 ft | 522 kts | 341° |
| 2026-04-23 22:29 | 10.28259 | -59.53280 | 34933 ft | 521 kts | 341° |
| 2026-04-23 22:30 | 10.35141 | -59.55621 | 34938 ft | 522 kts | 341° |
| 2026-04-23 22:30 | 10.42028 | -59.57965 | 34938 ft | 522 kts | 341° |
| 2026-04-23 22:31 | 10.48890 | -59.60302 | 34935 ft | 518 kts | 340° |
| 2026-04-23 22:31 | 10.55672 | -59.62612 | 34942 ft | 517 kts | 340° |
| 2026-04-23 22:32 | 10.62498 | -59.64939 | 34938 ft | 518 kts | 340° |
| 2026-04-23 22:32 | 10.69329 | -59.67269 | 34938 ft | 518 kts | 340° |
| 2026-04-23 22:33 | 10.76168 | -59.69602 | 34940 ft | 518 kts | 340° |
| 2026-04-23 22:33 | 10.82983 | -59.71927 | 34940 ft | 515 kts | 340° |
| 2026-04-23 22:34 | 10.89768 | -59.74245 | 34941 ft | 515 kts | 340° |
| 2026-04-23 22:34 | 10.96558 | -59.76565 | 34941 ft | 515 kts | 340° |
| 2026-04-23 22:35 | 11.03348 | -59.78886 | 34941 ft | 515 kts | 340° |
| 2026-04-23 22:35 | 11.10130 | -59.81206 | 34943 ft | 514 kts | 340° |
| 2026-04-23 22:36 | 11.16924 | -59.83530 | 34941 ft | 515 kts | 340° |
| 2026-04-23 22:36 | 11.23708 | -59.85853 | 34942 ft | 515 kts | 340° |
| 2026-04-23 22:37 | 11.30501 | -59.88180 | 34940 ft | 515 kts | 340° |
| 2026-04-23 22:37 | 11.37289 | -59.90506 | 34941 ft | 516 kts | 340° |
| 2026-04-23 22:38 | 11.44101 | -59.92842 | 34941 ft | 517 kts | 340° |
| 2026-04-23 22:38 | 11.50922 | -59.95181 | 34944 ft | 518 kts | 340° |
| 2026-04-23 22:39 | 11.57750 | -59.97525 | 34944 ft | 518 kts | 340° |
| 2026-04-23 22:39 | 11.64583 | -59.99871 | 34944 ft | 518 kts | 340° |
| 2026-04-23 22:40 | 11.71401 | -60.02213 | 34941 ft | 518 kts | 340° |
| 2026-04-23 22:41 | 11.81633 | -60.05730 | 34943 ft | 516 kts | 339° |
| 2026-04-23 22:41 | 11.88443 | -60.08073 | 34945 ft | 516 kts | 339° |
| 2026-04-23 22:42 | 11.95237 | -60.10412 | 34942 ft | 516 kts | 339° |
| 2026-04-23 22:42 | 12.02042 | -60.12755 | 34945 ft | 516 kts | 339° |
| 2026-04-23 22:43 | 12.08845 | -60.15099 | 34947 ft | 516 kts | 339° |
| 2026-04-23 22:43 | 12.15630 | -60.17438 | 34949 ft | 514 kts | 339° |
| 2026-04-23 22:44 | 12.22415 | -60.19777 | 34944 ft | 515 kts | 339° |
| 2026-04-23 22:44 | 12.29202 | -60.22120 | 34948 ft | 515 kts | 339° |
| 2026-04-23 22:45 | 12.35943 | -60.24448 | 34952 ft | 515 kts | 339° |
| 2026-04-23 22:45 | 12.42728 | -60.26792 | 34950 ft | 515 kts | 339° |
| 2026-04-23 22:46 | 12.49536 | -60.29146 | 34948 ft | 517 kts | 339° |
| 2026-04-23 22:46 | 12.56349 | -60.31502 | 34947 ft | 517 kts | 339° |
| 2026-04-23 22:47 | 12.63161 | -60.33860 | 34947 ft | 517 kts | 339° |
| 2026-04-23 22:47 | 12.69967 | -60.36216 | 34949 ft | 517 kts | 339° |
| 2026-04-23 22:48 | 12.76782 | -60.38578 | 34950 ft | 517 kts | 339° |
| 2026-04-23 22:48 | 12.83593 | -60.40939 | 34949 ft | 517 kts | 339° |
| 2026-04-23 22:49 | 12.90404 | -60.43301 | 34948 ft | 517 kts | 339° |
| 2026-04-23 22:49 | 12.97208 | -60.45662 | 34949 ft | 517 kts | 339° |
| 2026-04-23 22:50 | 13.04025 | -60.48030 | 34952 ft | 518 kts | 339° |
| 2026-04-23 22:50 | 13.10856 | -60.50404 | 34948 ft | 519 kts | 339° |
| 2026-04-23 22:51 | 13.17691 | -60.52780 | 34949 ft | 518 kts | 339° |
| 2026-04-23 22:51 | 13.24524 | -60.55156 | 34949 ft | 518 kts | 339° |
| 2026-04-23 22:52 | 13.31359 | -60.57536 | 34951 ft | 518 kts | 339° |
| 2026-04-23 22:52 | 13.38192 | -60.59915 | 34947 ft | 519 kts | 339° |
| 2026-04-23 22:53 | 13.45012 | -60.62292 | 34947 ft | 517 kts | 338° |
| 2026-04-23 22:53 | 13.51777 | -60.64650 | 34946 ft | 516 kts | 338° |
| 2026-04-23 22:54 | 13.58618 | -60.67038 | 34946 ft | 516 kts | 338° |
| 2026-04-23 22:54 | 13.65421 | -60.69415 | 34947 ft | 516 kts | 338° |
| 2026-04-23 22:55 | 13.72220 | -60.71791 | 34950 ft | 516 kts | 338° |
| 2026-04-23 22:55 | 13.78975 | -60.74152 | 34951 ft | 515 kts | 338° |
| 2026-04-23 22:56 | 13.85745 | -60.76521 | 34946 ft | 514 kts | 339° |
| 2026-04-23 22:56 | 13.92524 | -60.78895 | 34946 ft | 515 kts | 339° |
| 2026-04-23 22:57 | 13.99301 | -60.81269 | 34951 ft | 515 kts | 339° |
| 2026-04-23 22:57 | 14.06083 | -60.83647 | 34958 ft | 515 kts | 338° |
| 2026-04-23 22:58 | 14.12852 | -60.86020 | 34949 ft | 513 kts | 338° |
| 2026-04-23 22:58 | 14.18509 | -60.88006 | 34950 ft | 513 kts | 338° |
| 2026-04-23 22:59 | 14.25266 | -60.90379 | 34953 ft | 513 kts | 338° |
| 2026-04-23 22:59 | 14.32014 | -60.92751 | 34953 ft | 513 kts | 338° |
| 2026-04-23 23:00 | 14.38724 | -60.95110 | 34965 ft | 513 kts | 338° |
| 2026-04-23 23:00 | 14.45520 | -60.97501 | 34959 ft | 513 kts | 338° |
| 2026-04-23 23:01 | 14.52223 | -60.99861 | 34963 ft | 512 kts | 338° |
| 2026-04-23 23:01 | 14.58971 | -61.02239 | 34961 ft | 512 kts | 338° |
| 2026-04-23 23:02 | 14.65779 | -61.04464 | 34962 ft | 514 kts | 340° |
| 2026-04-23 23:02 | 14.72635 | -61.06501 | 34966 ft | 512 kts | 340° |
| 2026-04-23 23:03 | 14.79460 | -61.08544 | 34966 ft | 510 kts | 339° |
| 2026-04-23 23:03 | 14.86265 | -61.10615 | 34965 ft | 510 kts | 339° |
| 2026-04-23 23:04 | 14.93064 | -61.12704 | 34972 ft | 510 kts | 339° |
| 2026-04-23 23:04 | 14.99865 | -61.14798 | 34971 ft | 510 kts | 339° |
| 2026-04-23 23:05 | 15.06663 | -61.16891 | 34977 ft | 510 kts | 339° |
| 2026-04-23 23:05 | 15.13466 | -61.18986 | 34974 ft | 511 kts | 339° |
| 2026-04-23 23:06 | 15.20278 | -61.21086 | 34976 ft | 511 kts | 339° |
| 2026-04-23 23:06 | 15.27086 | -61.23184 | 34976 ft | 511 kts | 339° |
| 2026-04-23 23:07 | 15.33894 | -61.25285 | 34967 ft | 511 kts | 339° |
| 2026-04-23 23:07 | 15.40708 | -61.27389 | 34976 ft | 511 kts | 338° |
| 2026-04-23 23:08 | 15.47530 | -61.29497 | 34994 ft | 512 kts | 338° |
| 2026-04-23 23:08 | 15.54304 | -61.31595 | 34994 ft | 511 kts | 338° |
| 2026-04-23 23:09 | 15.61128 | -61.33706 | 34998 ft | 512 kts | 338° |
| 2026-04-23 23:09 | 15.67957 | -61.35819 | 34991 ft | 513 kts | 338° |
| 2026-04-23 23:10 | 15.74801 | -61.37938 | 34988 ft | 514 kts | 338° |
| 2026-04-23 23:10 | 15.81658 | -61.40064 | 34985 ft | 514 kts | 338° |
| 2026-04-23 23:11 | 15.88514 | -61.42191 | 34969 ft | 514 kts | 338° |
| 2026-04-23 23:11 | 15.95369 | -61.44319 | 34969 ft | 514 kts | 338° |
| 2026-04-23 23:12 | 16.02225 | -61.46449 | 34980 ft | 514 kts | 338° |
| 2026-04-23 23:12 | 16.09075 | -61.48579 | 34975 ft | 514 kts | 338° |
| 2026-04-23 23:13 | 16.15932 | -61.50713 | 34972 ft | 514 kts | 338° |
| 2026-04-23 23:13 | 16.22784 | -61.52847 | 34969 ft | 514 kts | 338° |
| 2026-04-23 23:14 | 16.29645 | -61.54978 | 34964 ft | 514 kts | 339° |
| 2026-04-23 23:14 | 16.36520 | -61.57047 | 34965 ft | 514 kts | 339° |
| 2026-04-23 23:15 | 16.43391 | -61.59101 | 34972 ft | 514 kts | 339° |
| 2026-04-23 23:15 | 16.50260 | -61.61165 | 34970 ft | 514 kts | 339° |
| 2026-04-23 23:16 | 16.57085 | -61.63225 | 34975 ft | 514 kts | 338° |
| 2026-04-23 23:16 | 16.63990 | -61.65312 | 34982 ft | 514 kts | 338° |
| 2026-04-23 23:17 | 16.70851 | -61.67387 | 34981 ft | 512 kts | 339° |
| 2026-04-23 23:17 | 16.77630 | -61.69440 | 34980 ft | 510 kts | 339° |
| 2026-04-23 23:18 | 16.84446 | -61.71496 | 34982 ft | 510 kts | 339° |
| 2026-04-23 23:18 | 16.91267 | -61.73557 | 34984 ft | 510 kts | 339° |
| 2026-04-23 23:19 | 16.98086 | -61.75619 | 34992 ft | 510 kts | 339° |
| 2026-04-23 23:19 | 17.04878 | -61.77675 | 34993 ft | 506 kts | 339° |
| 2026-04-23 23:20 | 17.11631 | -61.79692 | 34992 ft | 506 kts | 341° |
| 2026-04-23 23:20 | 17.18554 | -61.81161 | 34993 ft | 508 kts | 344° |
| 2026-04-23 23:21 | 17.25512 | -61.82487 | 34991 ft | 509 kts | 345° |
| 2026-04-23 23:21 | 17.32485 | -61.83789 | 34988 ft | 508 kts | 344° |
| 2026-04-23 23:22 | 17.39429 | -61.85093 | 34988 ft | 506 kts | 344° |
| 2026-04-23 23:22 | 17.46343 | -61.86401 | 34983 ft | 505 kts | 344° |
| 2026-04-23 23:23 | 17.53266 | -61.87715 | 34982 ft | 505 kts | 344° |
| 2026-04-23 23:23 | 17.60178 | -61.89029 | 34982 ft | 505 kts | 344° |
| 2026-04-23 23:24 | 17.67102 | -61.90344 | 34988 ft | 505 kts | 344° |
| 2026-04-23 23:24 | 17.74016 | -61.91658 | 34990 ft | 505 kts | 344° |
| 2026-04-23 23:25 | 17.80937 | -61.92975 | 34991 ft | 505 kts | 344° |
| 2026-04-23 23:25 | 17.87851 | -61.94292 | 34996 ft | 505 kts | 344° |
| 2026-04-23 23:26 | 17.94767 | -61.95610 | 35003 ft | 505 kts | 343° |
| 2026-04-23 23:26 | 18.01677 | -61.96928 | 34999 ft | 504 kts | 343° |
| 2026-04-23 23:27 | 18.08584 | -61.98246 | 34999 ft | 504 kts | 343° |
| 2026-04-23 23:27 | 18.15437 | -61.99553 | 35000 ft | 504 kts | 343° |
| 2026-04-23 23:28 | 18.22336 | -62.00870 | 35000 ft | 504 kts | 343° |
| 2026-04-23 23:28 | 18.29242 | -62.02189 | 35005 ft | 503 kts | 343° |
| 2026-04-23 23:29 | 18.36123 | -62.03504 | 35004 ft | 503 kts | 343° |
| 2026-04-23 23:29 | 18.43009 | -62.04823 | 35004 ft | 503 kts | 343° |
| 2026-04-23 23:30 | 18.49891 | -62.06142 | 35004 ft | 503 kts | 343° |
| 2026-04-23 23:30 | 18.56774 | -62.07462 | 35018 ft | 503 kts | 342° |
| 2026-04-23 23:31 | 18.63651 | -62.08781 | 35005 ft | 503 kts | 342° |
| 2026-04-23 23:31 | 18.70535 | -62.10104 | 35004 ft | 503 kts | 342° |
| 2026-04-23 23:32 | 18.77423 | -62.11428 | 35007 ft | 503 kts | 342° |
| 2026-04-23 23:32 | 18.84302 | -62.12752 | 35007 ft | 503 kts | 342° |
| 2026-04-23 23:33 | 18.91184 | -62.14076 | 35006 ft | 503 kts | 342° |
| 2026-04-23 23:33 | 18.98064 | -62.15402 | 35003 ft | 502 kts | 342° |
| 2026-04-23 23:34 | 19.04939 | -62.16729 | 35010 ft | 502 kts | 342° |
| 2026-04-23 23:34 | 19.11815 | -62.18057 | 35013 ft | 502 kts | 342° |
| 2026-04-23 23:35 | 19.18694 | -62.19387 | 35016 ft | 502 kts | 342° |
| 2026-04-23 23:35 | 19.25569 | -62.20717 | 35016 ft | 502 kts | 342° |
| 2026-04-23 23:36 | 19.32445 | -62.22048 | 35010 ft | 502 kts | 342° |
| 2026-04-23 23:36 | 19.39328 | -62.23382 | 35015 ft | 502 kts | 342° |
| 2026-04-23 23:37 | 19.46196 | -62.24714 | 35013 ft | 502 kts | 342° |
| 2026-04-23 23:37 | 19.53023 | -62.26039 | 35025 ft | 501 kts | 342° |
| 2026-04-23 23:38 | 19.59862 | -62.27367 | 35022 ft | 499 kts | 342° |
| 2026-04-23 23:38 | 19.66697 | -62.28697 | 35022 ft | 499 kts | 342° |
| 2026-04-23 23:39 | 19.73526 | -62.30027 | 35022 ft | 499 kts | 342° |
| 2026-04-23 23:39 | 19.80359 | -62.31359 | 35024 ft | 499 kts | 342° |
| 2026-04-23 23:40 | 19.87186 | -62.32688 | 35023 ft | 498 kts | 342° |
| 2026-04-23 23:40 | 19.93989 | -62.34016 | 35023 ft | 497 kts | 342° |
| 2026-04-23 23:41 | 20.00801 | -62.35347 | 35029 ft | 497 kts | 342° |
| 2026-04-23 23:41 | 20.07599 | -62.36677 | 35029 ft | 497 kts | 342° |
| 2026-04-23 23:42 | 20.14407 | -62.38009 | 35027 ft | 496 kts | 341° |
| 2026-04-23 23:42 | 20.21187 | -62.39335 | 35025 ft | 495 kts | 341° |
| 2026-04-23 23:43 | 20.27953 | -62.40662 | 35030 ft | 495 kts | 341° |
| 2026-04-23 23:43 | 20.34723 | -62.41991 | 35028 ft | 495 kts | 341° |
| 2026-04-23 23:44 | 20.41491 | -62.43321 | 35029 ft | 495 kts | 341° |
| 2026-04-23 23:44 | 20.47106 | -62.44423 | 35032 ft | 493 kts | 341° |
| 2026-04-23 23:45 | 20.53832 | -62.45744 | 35032 ft | 491 kts | 341° |
| 2026-04-23 23:45 | 20.60546 | -62.47066 | 35031 ft | 491 kts | 341° |
| 2026-04-23 23:46 | 20.67264 | -62.48392 | 35040 ft | 491 kts | 341° |
| 2026-04-23 23:46 | 20.73980 | -62.49717 | 35056 ft | 491 kts | 341° |
| 2026-04-23 23:47 | 20.80679 | -62.51038 | 35038 ft | 489 kts | 341° |
| 2026-04-23 23:47 | 20.87372 | -62.52360 | 35042 ft | 489 kts | 341° |
| 2026-04-23 23:48 | 20.94060 | -62.53683 | 35042 ft | 488 kts | 341° |
| 2026-04-23 23:48 | 21.00737 | -62.55005 | 35042 ft | 488 kts | 341° |
| 2026-04-23 23:49 | 21.10765 | -62.56993 | 35043 ft | 489 kts | 341° |
| 2026-04-23 23:49 | 21.17445 | -62.58319 | 35048 ft | 489 kts | 341° |
| 2026-04-23 23:50 | 21.24132 | -62.59646 | 35044 ft | 489 kts | 341° |
| 2026-04-23 23:50 | 21.30825 | -62.60976 | 35039 ft | 489 kts | 341° |
| 2026-04-23 23:51 | 21.37507 | -62.62305 | 35045 ft | 489 kts | 340° |
| 2026-04-23 23:51 | 21.44195 | -62.63639 | 35045 ft | 489 kts | 340° |
| 2026-04-23 23:52 | 21.50882 | -62.64971 | 35045 ft | 489 kts | 340° |
| 2026-04-23 23:52 | 21.57576 | -62.66306 | 35045 ft | 489 kts | 340° |
| 2026-04-23 23:53 | 21.64261 | -62.67640 | 35045 ft | 489 kts | 340° |
| 2026-04-23 23:53 | 21.70939 | -62.68973 | 35052 ft | 488 kts | 340° |
| 2026-04-23 23:54 | 21.77611 | -62.70308 | 35051 ft | 487 kts | 340° |
| 2026-04-23 23:54 | 21.84270 | -62.71643 | 35052 ft | 487 kts | 340° |
| 2026-04-23 23:55 | 21.90937 | -62.72980 | 35051 ft | 487 kts | 340° |
| 2026-04-23 23:55 | 21.97604 | -62.74318 | 35057 ft | 487 kts | 340° |
| 2026-04-23 23:56 | 22.04264 | -62.75655 | 35056 ft | 487 kts | 340° |
| 2026-04-23 23:56 | 22.10931 | -62.76995 | 35058 ft | 487 kts | 340° |
| 2026-04-23 23:57 | 22.17596 | -62.78337 | 35059 ft | 487 kts | 340° |
| 2026-04-23 23:57 | 22.24256 | -62.79678 | 35061 ft | 487 kts | 340° |
| 2026-04-23 23:58 | 22.30928 | -62.81023 | 35061 ft | 487 kts | 340° |
| 2026-04-23 23:58 | 22.37587 | -62.82367 | 35061 ft | 487 kts | 340° |
| 2026-04-23 23:59 | 22.44211 | -62.83705 | 35061 ft | 487 kts | 340° |
| 2026-04-23 23:59 | 22.50920 | -62.85062 | 35061 ft | 488 kts | 340° |
| 2026-04-24 00:00 | 22.57596 | -62.86413 | 35071 ft | 487 kts | 339° |
| 2026-04-24 00:00 | 22.64210 | -62.87752 | 35067 ft | 487 kts | 339° |
| 2026-04-24 00:01 | 22.70867 | -62.89103 | 35067 ft | 487 kts | 339° |
| 2026-04-24 00:01 | 22.77530 | -62.90455 | 35067 ft | 487 kts | 339° |
| 2026-04-24 00:02 | 22.84182 | -62.91807 | 35070 ft | 487 kts | 339° |
| 2026-04-24 00:02 | 22.90843 | -62.93162 | 35069 ft | 487 kts | 339° |
| 2026-04-24 00:03 | 22.97495 | -62.94516 | 35072 ft | 487 kts | 339° |
| 2026-04-24 00:03 | 23.04154 | -62.95874 | 35075 ft | 487 kts | 339° |
| 2026-04-24 00:04 | 23.10811 | -62.97232 | 35072 ft | 487 kts | 339° |
| 2026-04-24 00:04 | 23.17461 | -62.98589 | 35082 ft | 487 kts | 339° |
| 2026-04-24 00:05 | 23.24116 | -62.99949 | 35074 ft | 486 kts | 339° |
| 2026-04-24 00:05 | 23.30764 | -63.01310 | 35077 ft | 486 kts | 339° |
| 2026-04-24 00:06 | 23.37408 | -63.02672 | 35075 ft | 486 kts | 339° |
| 2026-04-24 00:06 | 23.44055 | -63.04035 | 35075 ft | 486 kts | 339° |
| 2026-04-24 00:07 | 23.50624 | -63.05596 | 35075 ft | 475 kts | 332° |
| 2026-04-24 00:07 | 23.56870 | -63.07824 | 35076 ft | 472 kts | 330° |
| 2026-04-24 00:08 | 23.63064 | -63.10177 | 35079 ft | 471 kts | 330° |
| 2026-04-24 00:08 | 23.69246 | -63.12551 | 35080 ft | 471 kts | 330° |
| 2026-04-24 00:09 | 23.75424 | -63.14914 | 35080 ft | 471 kts | 330° |
| 2026-04-24 00:09 | 23.81601 | -63.17267 | 35083 ft | 469 kts | 329° |
| 2026-04-24 00:10 | 23.87751 | -63.19610 | 35083 ft | 468 kts | 329° |
| 2026-04-24 00:10 | 23.93901 | -63.21959 | 35086 ft | 468 kts | 329° |
| 2026-04-24 00:11 | 24.00046 | -63.24309 | 35083 ft | 468 kts | 329° |
| 2026-04-24 00:11 | 24.06196 | -63.26662 | 35085 ft | 468 kts | 329° |
| 2026-04-24 00:12 | 24.12333 | -63.29009 | 35087 ft | 466 kts | 329° |
| 2026-04-24 00:12 | 24.18452 | -63.31354 | 35086 ft | 466 kts | 329° |
| 2026-04-24 00:13 | 24.24569 | -63.33703 | 35090 ft | 466 kts | 329° |
| 2026-04-24 00:13 | 24.30644 | -63.36037 | 35090 ft | 466 kts | 329° |
| 2026-04-24 00:14 | 24.36797 | -63.38403 | 35089 ft | 466 kts | 329° |
| 2026-04-24 00:14 | 24.42908 | -63.40752 | 35089 ft | 464 kts | 328° |
| 2026-04-24 00:15 | 24.48987 | -63.43093 | 35091 ft | 463 kts | 328° |
| 2026-04-24 00:15 | 24.55021 | -63.45422 | 35092 ft | 462 kts | 328° |
| 2026-04-24 00:16 | 24.61086 | -63.47765 | 35093 ft | 462 kts | 328° |
| 2026-04-24 00:16 | 24.67155 | -63.50111 | 35095 ft | 462 kts | 328° |
| 2026-04-24 00:17 | 24.73217 | -63.52455 | 35091 ft | 461 kts | 328° |
| 2026-04-24 00:17 | 24.79266 | -63.54797 | 35094 ft | 461 kts | 328° |
| 2026-04-24 00:18 | 24.85313 | -63.57142 | 35094 ft | 461 kts | 328° |
| 2026-04-24 00:18 | 24.91355 | -63.59487 | 35097 ft | 461 kts | 328° |
| 2026-04-24 00:19 | 24.97400 | -63.61836 | 35097 ft | 461 kts | 328° |
| 2026-04-24 00:19 | 25.03444 | -63.64186 | 35097 ft | 460 kts | 328° |
| 2026-04-24 00:20 | 25.09481 | -63.66536 | 35097 ft | 460 kts | 328° |
| 2026-04-24 00:20 | 25.15519 | -63.68889 | 35097 ft | 460 kts | 328° |
| 2026-04-24 00:21 | 25.21557 | -63.71245 | 35097 ft | 460 kts | 328° |
| 2026-04-24 00:21 | 25.27594 | -63.73602 | 35097 ft | 460 kts | 328° |
| 2026-04-24 00:22 | 25.33625 | -63.75960 | 35102 ft | 460 kts | 328° |
| 2026-04-24 00:22 | 25.39662 | -63.78323 | 35101 ft | 460 kts | 328° |
| 2026-04-24 00:23 | 25.45704 | -63.80690 | 35096 ft | 460 kts | 328° |
| 2026-04-24 00:23 | 25.51742 | -63.83057 | 35096 ft | 460 kts | 328° |
| 2026-04-24 00:24 | 25.57772 | -63.85425 | 35116 ft | 460 kts | 328° |
| 2026-04-24 00:24 | 25.63770 | -63.87782 | 35102 ft | 460 kts | 328° |
| 2026-04-24 00:25 | 25.69810 | -63.90158 | 35103 ft | 460 kts | 328° |
| 2026-04-24 00:25 | 25.75880 | -63.92549 | 35105 ft | 460 kts | 328° |
| 2026-04-24 00:26 | 25.81872 | -63.94912 | 35104 ft | 460 kts | 328° |
| 2026-04-24 00:26 | 25.87906 | -63.97293 | 35104 ft | 460 kts | 328° |
| 2026-04-24 00:27 | 25.93936 | -63.99677 | 35109 ft | 460 kts | 328° |
| 2026-04-24 00:27 | 25.99968 | -64.02063 | 35107 ft | 460 kts | 328° |
| 2026-04-24 00:28 | 26.06004 | -64.04452 | 35111 ft | 460 kts | 328° |
| 2026-04-24 00:28 | 26.12041 | -64.06846 | 35111 ft | 461 kts | 328° |
| 2026-04-24 00:29 | 26.17057 | -64.08837 | 35112 ft | 461 kts | 328° |
| 2026-04-24 00:29 | 26.23097 | -64.11237 | 35116 ft | 460 kts | 329° |
| 2026-04-24 00:30 | 26.29124 | -64.13633 | 35114 ft | 460 kts | 329° |
| 2026-04-24 00:30 | 26.35161 | -64.16036 | 35117 ft | 460 kts | 329° |
| 2026-04-24 00:31 | 26.41189 | -64.18438 | 35114 ft | 460 kts | 329° |
| 2026-04-24 00:31 | 26.47217 | -64.20844 | 35117 ft | 460 kts | 329° |
| 2026-04-24 00:32 | 26.53249 | -64.23255 | 35114 ft | 460 kts | 329° |
| 2026-04-24 00:32 | 26.59281 | -64.25667 | 35117 ft | 460 kts | 329° |
| 2026-04-24 00:33 | 26.65308 | -64.28079 | 35115 ft | 460 kts | 329° |
| 2026-04-24 00:33 | 26.71340 | -64.30496 | 35121 ft | 460 kts | 329° |
| 2026-04-24 00:34 | 26.77365 | -64.32913 | 35117 ft | 460 kts | 329° |
| 2026-04-24 00:34 | 26.83352 | -64.35321 | 35122 ft | 460 kts | 329° |
| 2026-04-24 00:35 | 26.89380 | -64.37745 | 35118 ft | 460 kts | 330° |
| 2026-04-24 00:35 | 26.95405 | -64.40168 | 35118 ft | 460 kts | 330° |
| 2026-04-24 00:36 | 27.01437 | -64.42599 | 35121 ft | 460 kts | 330° |
| 2026-04-24 00:36 | 27.07466 | -64.45032 | 35121 ft | 460 kts | 330° |
| 2026-04-24 00:37 | 27.13494 | -64.47468 | 35121 ft | 460 kts | 330° |
| 2026-04-24 00:37 | 27.19520 | -64.49904 | 35122 ft | 460 kts | 330° |
| 2026-04-24 00:38 | 27.25546 | -64.52344 | 35124 ft | 460 kts | 330° |
| 2026-04-24 00:38 | 27.31575 | -64.54788 | 35124 ft | 460 kts | 330° |
| 2026-04-24 00:39 | 27.37598 | -64.57232 | 35155 ft | 460 kts | 330° |
| 2026-04-24 00:39 | 27.43632 | -64.59686 | 35129 ft | 461 kts | 330° |
| 2026-04-24 00:40 | 27.49671 | -64.62142 | 35125 ft | 461 kts | 330° |
| 2026-04-24 00:40 | 27.55713 | -64.64601 | 35116 ft | 461 kts | 330° |
| 2026-04-24 00:41 | 27.61748 | -64.67061 | 35120 ft | 461 kts | 330° |
| 2026-04-24 00:41 | 27.67781 | -64.69524 | 35153 ft | 462 kts | 331° |
| 2026-04-24 00:42 | 27.73826 | -64.71997 | 35127 ft | 463 kts | 331° |
| 2026-04-24 00:42 | 27.79890 | -64.74478 | 35127 ft | 463 kts | 331° |
| 2026-04-24 00:43 | 27.85948 | -64.76958 | 35130 ft | 463 kts | 331° |
| 2026-04-24 00:43 | 27.92005 | -64.79442 | 35130 ft | 463 kts | 331° |
| 2026-04-24 00:44 | 27.98027 | -64.81915 | 35145 ft | 463 kts | 332° |
| 2026-04-24 00:44 | 28.04089 | -64.84408 | 35128 ft | 464 kts | 332° |
| 2026-04-24 00:45 | 28.10152 | -64.86904 | 35134 ft | 464 kts | 332° |
| 2026-04-24 00:45 | 28.16216 | -64.89402 | 35134 ft | 464 kts | 332° |
| 2026-04-24 00:46 | 28.22279 | -64.91904 | 35132 ft | 464 kts | 332° |
| 2026-04-24 00:46 | 28.28344 | -64.94409 | 35134 ft | 464 kts | 332° |
| 2026-04-24 00:47 | 28.34411 | -64.96919 | 35135 ft | 464 kts | 332° |
| 2026-04-24 00:47 | 28.40477 | -64.99432 | 35138 ft | 464 kts | 332° |
| 2026-04-24 00:48 | 28.46547 | -65.01949 | 35141 ft | 465 kts | 332° |
| 2026-04-24 00:48 | 28.52625 | -65.04472 | 35136 ft | 465 kts | 332° |
| 2026-04-24 00:49 | 28.58702 | -65.06999 | 35129 ft | 465 kts | 332° |
| 2026-04-24 00:49 | 28.64788 | -65.09532 | 35132 ft | 466 kts | 332° |
| 2026-04-24 00:50 | 28.70874 | -65.12067 | 35133 ft | 466 kts | 332° |
| 2026-04-24 00:50 | 28.76957 | -65.14605 | 35142 ft | 466 kts | 332° |
| 2026-04-24 00:51 | 28.83044 | -65.17147 | 35148 ft | 466 kts | 332° |
| 2026-04-24 00:51 | 28.89125 | -65.19692 | 35140 ft | 466 kts | 333° |
| 2026-04-24 00:52 | 28.95213 | -65.22241 | 35140 ft | 466 kts | 333° |
| 2026-04-24 00:52 | 29.01307 | -65.24795 | 35140 ft | 466 kts | 333° |
| 2026-04-24 00:53 | 29.07395 | -65.27351 | 35138 ft | 466 kts | 333° |
| 2026-04-24 00:53 | 29.13447 | -65.29895 | 35160 ft | 466 kts | 334° |
| 2026-04-24 00:54 | 29.19548 | -65.32465 | 35139 ft | 468 kts | 334° |
| 2026-04-24 00:54 | 29.25668 | -65.35043 | 35138 ft | 469 kts | 334° |
| 2026-04-24 00:55 | 29.31789 | -65.37625 | 35141 ft | 469 kts | 334° |
| 2026-04-24 00:55 | 29.37903 | -65.40208 | 35141 ft | 469 kts | 334° |
| 2026-04-24 00:56 | 29.44018 | -65.42798 | 35146 ft | 468 kts | 334° |
| 2026-04-24 00:56 | 29.50120 | -65.45437 | 35140 ft | 468 kts | 334° |
| 2026-04-24 00:57 | 29.56210 | -65.48097 | 35141 ft | 468 kts | 334° |
| 2026-04-24 00:58 | 29.65342 | -65.52081 | 35136 ft | 468 kts | 334° |
| 2026-04-24 00:58 | 29.71436 | -65.54737 | 35155 ft | 468 kts | 334° |
| 2026-04-24 00:59 | 29.77514 | -65.57389 | 35138 ft | 467 kts | 334° |
| 2026-04-24 00:59 | 29.83583 | -65.60041 | 35137 ft | 466 kts | 334° |
| 2026-04-24 01:00 | 29.89648 | -65.62696 | 35138 ft | 466 kts | 334° |
| 2026-04-24 01:00 | 29.95705 | -65.65350 | 35140 ft | 466 kts | 334° |
| 2026-04-24 01:01 | 30.01764 | -65.68009 | 35140 ft | 465 kts | 334° |
| 2026-04-24 01:01 | 30.07808 | -65.70664 | 35134 ft | 465 kts | 334° |
| 2026-04-24 01:02 | 30.13852 | -65.73323 | 35134 ft | 465 kts | 334° |
| 2026-04-24 01:02 | 30.19893 | -65.75984 | 35135 ft | 465 kts | 334° |
| 2026-04-24 01:03 | 30.25927 | -65.78646 | 35134 ft | 465 kts | 334° |
| 2026-04-24 01:03 | 30.31969 | -65.81316 | 35130 ft | 464 kts | 334° |
| 2026-04-24 01:04 | 30.37991 | -65.83978 | 35129 ft | 463 kts | 334° |
| 2026-04-24 01:04 | 30.44018 | -65.86647 | 35129 ft | 463 kts | 334° |
| 2026-04-24 01:05 | 30.50040 | -65.89317 | 35127 ft | 464 kts | 334° |
| 2026-04-24 01:05 | 30.56063 | -65.91991 | 35152 ft | 463 kts | 334° |
| 2026-04-24 01:06 | 30.62080 | -65.94667 | 35128 ft | 463 kts | 334° |
| 2026-04-24 01:06 | 30.68086 | -65.97341 | 35128 ft | 462 kts | 334° |
| 2026-04-24 01:07 | 30.74089 | -66.00017 | 35124 ft | 462 kts | 334° |
| 2026-04-24 01:07 | 30.80095 | -66.02698 | 35124 ft | 462 kts | 334° |
| 2026-04-24 01:08 | 30.86108 | -66.05385 | 35125 ft | 462 kts | 334° |
| 2026-04-24 01:08 | 30.92060 | -66.08048 | 35123 ft | 461 kts | 334° |
| 2026-04-24 01:09 | 30.98074 | -66.10744 | 35118 ft | 460 kts | 334° |
| 2026-04-24 01:09 | 31.04055 | -66.13429 | 35126 ft | 461 kts | 334° |
| 2026-04-24 01:10 | 31.10038 | -66.16117 | 35115 ft | 461 kts | 334° |
| 2026-04-24 01:10 | 31.15976 | -66.18790 | 35120 ft | 461 kts | 334° |
| 2026-04-24 01:11 | 31.21960 | -66.21486 | 35112 ft | 461 kts | 334° |
| 2026-04-24 01:11 | 31.27935 | -66.24182 | 35113 ft | 460 kts | 334° |
| 2026-04-24 01:12 | 31.33913 | -66.26884 | 35114 ft | 460 kts | 334° |
| 2026-04-24 01:12 | 31.39886 | -66.29586 | 35125 ft | 460 kts | 334° |
| 2026-04-24 01:13 | 31.45841 | -66.32283 | 35110 ft | 459 kts | 334° |
| 2026-04-24 01:13 | 31.51795 | -66.34984 | 35108 ft | 458 kts | 334° |
| 2026-04-24 01:14 | 31.57739 | -66.37685 | 35113 ft | 458 kts | 334° |
| 2026-04-24 01:14 | 31.63684 | -66.40390 | 35106 ft | 458 kts | 334° |
| 2026-04-24 01:15 | 31.68623 | -66.42640 | 35127 ft | 458 kts | 334° |
| 2026-04-24 01:15 | 31.74557 | -66.45346 | 35102 ft | 457 kts | 334° |
| 2026-04-24 01:16 | 31.80489 | -66.48055 | 35102 ft | 457 kts | 334° |
| 2026-04-24 01:16 | 31.86416 | -66.50766 | 35097 ft | 457 kts | 334° |
| 2026-04-24 01:17 | 31.92375 | -66.53495 | 35094 ft | 457 kts | 334° |
| 2026-04-24 01:17 | 31.98260 | -66.56195 | 35103 ft | 457 kts | 334° |
| 2026-04-24 01:18 | 32.04185 | -66.58914 | 35090 ft | 457 kts | 335° |
| 2026-04-24 01:18 | 32.10103 | -66.61636 | 35087 ft | 457 kts | 335° |
| 2026-04-24 01:19 | 32.16020 | -66.64361 | 35084 ft | 456 kts | 335° |
| 2026-04-24 01:19 | 32.21934 | -66.67089 | 35084 ft | 456 kts | 335° |
| 2026-04-24 01:20 | 32.27850 | -66.69822 | 35081 ft | 456 kts | 335° |
| 2026-04-24 01:20 | 32.33755 | -66.72553 | 35076 ft | 456 kts | 335° |
| 2026-04-24 01:21 | 32.39658 | -66.75286 | 35078 ft | 456 kts | 335° |
| 2026-04-24 01:21 | 32.45566 | -66.78026 | 35074 ft | 456 kts | 335° |
| 2026-04-24 01:22 | 32.51467 | -66.80767 | 35091 ft | 456 kts | 335° |
| 2026-04-24 01:22 | 32.57350 | -66.83503 | 35069 ft | 453 kts | 335° |
| 2026-04-24 01:23 | 32.63201 | -66.86227 | 35064 ft | 452 kts | 335° |
| 2026-04-24 01:23 | 32.69058 | -66.88960 | 35064 ft | 452 kts | 335° |
| 2026-04-24 01:24 | 32.74910 | -66.91693 | 35061 ft | 452 kts | 335° |
| 2026-04-24 01:24 | 32.80768 | -66.94435 | 35060 ft | 452 kts | 336° |
| 2026-04-24 01:25 | 32.86553 | -66.97144 | 35056 ft | 449 kts | 336° |
| 2026-04-24 01:25 | 32.92409 | -66.99890 | 35056 ft | 449 kts | 336° |
| 2026-04-24 01:26 | 32.98185 | -67.02603 | 35051 ft | 449 kts | 336° |
| 2026-04-24 01:26 | 33.03999 | -67.05337 | 35051 ft | 449 kts | 336° |
| 2026-04-24 01:27 | 33.09804 | -67.08077 | 35045 ft | 448 kts | 336° |
| 2026-04-24 01:27 | 33.15602 | -67.10810 | 35043 ft | 448 kts | 336° |
| 2026-04-24 01:28 | 33.21400 | -67.13547 | 35042 ft | 448 kts | 336° |
| 2026-04-24 01:28 | 33.27193 | -67.16286 | 35037 ft | 448 kts | 336° |
| 2026-04-24 01:29 | 33.32993 | -67.19034 | 35059 ft | 448 kts | 336° |
| 2026-04-24 01:29 | 33.38777 | -67.21780 | 35019 ft | 446 kts | 336° |
| 2026-04-24 01:30 | 33.44539 | -67.24516 | 35030 ft | 445 kts | 337° |
| 2026-04-24 01:30 | 33.50299 | -67.27255 | 35021 ft | 445 kts | 337° |
| 2026-04-24 01:31 | 33.56057 | -67.29999 | 35026 ft | 445 kts | 337° |
| 2026-04-24 01:31 | 33.61815 | -67.32747 | 35018 ft | 445 kts | 337° |
| 2026-04-24 01:32 | 33.67539 | -67.35482 | 35020 ft | 442 kts | 337° |
| 2026-04-24 01:32 | 33.73246 | -67.38213 | 35012 ft | 441 kts | 337° |
| 2026-04-24 01:33 | 33.78949 | -67.40946 | 35011 ft | 441 kts | 337° |
| 2026-04-24 01:33 | 33.84650 | -67.43682 | 35007 ft | 441 kts | 337° |
| 2026-04-24 01:34 | 33.90350 | -67.46422 | 35008 ft | 441 kts | 337° |
| 2026-04-24 01:34 | 33.96011 | -67.49146 | 35001 ft | 441 kts | 337° |
| 2026-04-24 01:35 | 34.01706 | -67.51891 | 35001 ft | 441 kts | 337° |
| 2026-04-24 01:35 | 34.07404 | -67.54642 | 34996 ft | 441 kts | 337° |
| 2026-04-24 01:36 | 34.13032 | -67.57552 | 35013 ft | 439 kts | 331° |
| 2026-04-24 01:36 | 34.18116 | -67.61569 | 34999 ft | 436 kts | 324° |
| 2026-04-24 01:37 | 34.22986 | -67.65913 | 34998 ft | 435 kts | 323° |
| 2026-04-24 01:37 | 34.27822 | -67.70321 | 34998 ft | 435 kts | 323° |
| 2026-04-24 01:38 | 34.32661 | -67.74723 | 34994 ft | 435 kts | 323° |
| 2026-04-24 01:38 | 34.37512 | -67.79123 | 34996 ft | 435 kts | 323° |
| 2026-04-24 01:39 | 34.42356 | -67.83516 | 35009 ft | 435 kts | 323° |
| 2026-04-24 01:39 | 34.47184 | -67.87898 | 34996 ft | 432 kts | 323° |
| 2026-04-24 01:40 | 34.51988 | -67.92269 | 34991 ft | 431 kts | 323° |
| 2026-04-24 01:40 | 34.56780 | -67.96636 | 34993 ft | 431 kts | 323° |
| 2026-04-24 01:41 | 34.61580 | -68.01016 | 34990 ft | 431 kts | 323° |
| 2026-04-24 01:41 | 34.66373 | -68.05395 | 34990 ft | 431 kts | 323° |
| 2026-04-24 01:42 | 34.71162 | -68.09777 | 34990 ft | 431 kts | 323° |
| 2026-04-24 01:42 | 34.75946 | -68.14160 | 34988 ft | 430 kts | 323° |
| 2026-04-24 01:43 | 34.80724 | -68.18546 | 34988 ft | 430 kts | 323° |
| 2026-04-24 01:43 | 34.85502 | -68.22939 | 34984 ft | 430 kts | 323° |
| 2026-04-24 01:44 | 34.90278 | -68.27336 | 34988 ft | 430 kts | 323° |
| 2026-04-24 01:44 | 34.95045 | -68.31730 | 34982 ft | 430 kts | 322° |
| 2026-04-24 01:45 | 34.99815 | -68.36134 | 34987 ft | 430 kts | 322° |
| 2026-04-24 01:45 | 35.04574 | -68.40535 | 34987 ft | 428 kts | 322° |
| 2026-04-24 01:46 | 35.09313 | -68.44922 | 34985 ft | 427 kts | 322° |
| 2026-04-24 01:46 | 35.14045 | -68.49312 | 34985 ft | 427 kts | 322° |
| 2026-04-24 01:47 | 35.18777 | -68.53706 | 34977 ft | 427 kts | 322° |
| 2026-04-24 01:47 | 35.23482 | -68.58083 | 34985 ft | 428 kts | 322° |
| 2026-04-24 01:48 | 35.28219 | -68.62497 | 34988 ft | 428 kts | 322° |
| 2026-04-24 01:48 | 35.32948 | -68.66910 | 34987 ft | 425 kts | 322° |
| 2026-04-24 01:49 | 35.37645 | -68.71298 | 34987 ft | 424 kts | 322° |
| 2026-04-24 01:49 | 35.42336 | -68.75688 | 34988 ft | 424 kts | 322° |
| 2026-04-24 01:50 | 35.47021 | -68.80078 | 34987 ft | 424 kts | 322° |
| 2026-04-24 01:50 | 35.51711 | -68.84481 | 34988 ft | 424 kts | 322° |
| 2026-04-24 01:51 | 35.56393 | -68.88882 | 34992 ft | 425 kts | 322° |
| 2026-04-24 01:51 | 35.61082 | -68.93298 | 34990 ft | 423 kts | 322° |
| 2026-04-24 01:52 | 35.65736 | -68.97686 | 34991 ft | 421 kts | 322° |
| 2026-04-24 01:52 | 35.70383 | -69.02074 | 34993 ft | 421 kts | 322° |
| 2026-04-24 01:53 | 35.75031 | -69.06470 | 34990 ft | 421 kts | 322° |
| 2026-04-24 01:53 | 35.79676 | -69.10870 | 34990 ft | 421 kts | 322° |
| 2026-04-24 01:54 | 35.84316 | -69.15271 | 34993 ft | 421 kts | 322° |
| 2026-04-24 01:54 | 35.88952 | -69.19676 | 34989 ft | 419 kts | 322° |
| 2026-04-24 01:55 | 35.93568 | -69.24069 | 34990 ft | 419 kts | 322° |
| 2026-04-24 01:55 | 35.98174 | -69.28459 | 34994 ft | 419 kts | 322° |
| 2026-04-24 01:56 | 36.02782 | -69.32856 | 34993 ft | 419 kts | 322° |
| 2026-04-24 01:56 | 36.07392 | -69.37263 | 34994 ft | 419 kts | 322° |
| 2026-04-24 01:57 | 36.11993 | -69.41668 | 34994 ft | 419 kts | 322° |
| 2026-04-24 01:57 | 36.16595 | -69.46079 | 34992 ft | 417 kts | 322° |
| 2026-04-24 01:58 | 36.21170 | -69.50474 | 34994 ft | 416 kts | 322° |
| 2026-04-24 01:58 | 36.25741 | -69.54871 | 34980 ft | 416 kts | 321° |
| 2026-04-24 01:59 | 36.30317 | -69.59279 | 34984 ft | 417 kts | 321° |
| 2026-04-24 01:59 | 36.34888 | -69.63689 | 34999 ft | 416 kts | 321° |
| 2026-04-24 02:00 | 36.38685 | -69.67358 | 34997 ft | 417 kts | 321° |
| 2026-04-24 02:00 | 36.44000 | -69.72498 | 35000 ft | 416 kts | 321° |
| 2026-04-24 02:01 | 36.48549 | -69.76908 | 34998 ft | 414 kts | 321° |
| 2026-04-24 02:01 | 36.52360 | -69.80608 | 34998 ft | 415 kts | 321° |
| 2026-04-24 02:02 | 36.56900 | -69.85021 | 34997 ft | 415 kts | 321° |
| 2026-04-24 02:02 | 36.61442 | -69.89444 | 34997 ft | 414 kts | 321° |
| 2026-04-24 02:03 | 36.68247 | -69.96080 | 35001 ft | 414 kts | 321° |
| 2026-04-24 02:03 | 36.72773 | -70.00503 | 34993 ft | 414 kts | 321° |
| 2026-04-24 02:04 | 36.77273 | -70.04907 | 34978 ft | 414 kts | 321° |
| 2026-04-24 02:04 | 36.81803 | -70.09348 | 34992 ft | 414 kts | 321° |
| 2026-04-24 02:05 | 36.86328 | -70.13790 | 35001 ft | 414 kts | 321° |
| 2026-04-24 02:05 | 36.90849 | -70.18236 | 35001 ft | 414 kts | 321° |
| 2026-04-24 02:06 | 36.95375 | -70.22693 | 34995 ft | 414 kts | 321° |
| 2026-04-24 02:06 | 36.99901 | -70.27157 | 34989 ft | 414 kts | 321° |
| 2026-04-24 02:07 | 37.04408 | -70.31609 | 34995 ft | 412 kts | 320° |
| 2026-04-24 02:07 | 37.08908 | -70.36061 | 35007 ft | 412 kts | 320° |
| 2026-04-24 02:08 | 37.13406 | -70.40519 | 34998 ft | 412 kts | 320° |
| 2026-04-24 02:08 | 37.17904 | -70.44983 | 34989 ft | 412 kts | 320° |
| 2026-04-24 02:09 | 37.22403 | -70.49455 | 35008 ft | 412 kts | 320° |
| 2026-04-24 02:09 | 37.26892 | -70.53925 | 35011 ft | 411 kts | 320° |
| 2026-04-24 02:10 | 37.31373 | -70.58393 | 34992 ft | 411 kts | 320° |
| 2026-04-24 02:10 | 37.35850 | -70.62864 | 34995 ft | 411 kts | 320° |
| 2026-04-24 02:11 | 37.40327 | -70.67342 | 34996 ft | 411 kts | 320° |
| 2026-04-24 02:11 | 37.44807 | -70.71831 | 34991 ft | 411 kts | 320° |
| 2026-04-24 02:12 | 37.49282 | -70.76321 | 35001 ft | 411 kts | 320° |
| 2026-04-24 02:12 | 37.53754 | -70.80816 | 35005 ft | 411 kts | 320° |
| 2026-04-24 02:13 | 37.58184 | -70.85275 | 34991 ft | 409 kts | 320° |
| 2026-04-24 02:13 | 37.62660 | -70.89788 | 34980 ft | 410 kts | 320° |
| 2026-04-24 02:14 | 37.67087 | -70.94258 | 34994 ft | 411 kts | 320° |
| 2026-04-24 02:14 | 37.71351 | -70.99053 | 34991 ft | 411 kts | 313° |
| 2026-04-24 02:15 | 37.74945 | -71.04663 | 34989 ft | 411 kts | 309° |
| 2026-04-24 02:15 | 37.78388 | -71.10440 | 34989 ft | 412 kts | 308° |
| 2026-04-24 02:16 | 37.81808 | -71.16252 | 35014 ft | 411 kts | 308° |
| 2026-04-24 02:16 | 37.85220 | -71.22039 | 34991 ft | 410 kts | 308° |
| 2026-04-24 02:17 | 37.88629 | -71.27806 | 34985 ft | 409 kts | 308° |
| 2026-04-24 02:17 | 37.92039 | -71.33578 | 34986 ft | 409 kts | 308° |
| 2026-04-24 02:18 | 37.95448 | -71.39361 | 34988 ft | 409 kts | 308° |
| 2026-04-24 02:18 | 37.98853 | -71.45146 | 34989 ft | 409 kts | 308° |
| 2026-04-24 02:19 | 38.02254 | -71.50936 | 34985 ft | 409 kts | 308° |
| 2026-04-24 02:19 | 38.05651 | -71.56729 | 34964 ft | 409 kts | 308° |
| 2026-04-24 02:20 | 38.09056 | -71.62545 | 34983 ft | 411 kts | 308° |
| 2026-04-24 02:20 | 38.12469 | -71.68386 | 35005 ft | 412 kts | 308° |
| 2026-04-24 02:21 | 38.15869 | -71.74218 | 34985 ft | 410 kts | 308° |
| 2026-04-24 02:21 | 38.19263 | -71.80049 | 34982 ft | 410 kts | 308° |
| 2026-04-24 02:22 | 38.22715 | -71.85823 | 34982 ft | 409 kts | 311° |
| 2026-04-24 02:22 | 38.26919 | -71.90681 | 34980 ft | 410 kts | 324° |
| 2026-04-24 02:23 | 38.32029 | -71.93953 | 34980 ft | 417 kts | 338° |
| 2026-04-24 02:23 | 38.37756 | -71.95263 | 34976 ft | 428 kts | 352° |
| 2026-04-24 02:24 | 38.43722 | -71.95325 | 34975 ft | 429 kts | 354° |
| 2026-04-24 02:24 | 38.49691 | -71.95196 | 34974 ft | 429 kts | 354° |
| 2026-04-24 02:25 | 38.55655 | -71.95082 | 34972 ft | 428 kts | 354° |
| 2026-04-24 02:25 | 38.61616 | -71.95006 | 35001 ft | 428 kts | 354° |
| 2026-04-24 02:26 | 38.67565 | -71.94942 | 34968 ft | 426 kts | 354° |
| 2026-04-24 02:26 | 38.73494 | -71.94860 | 34967 ft | 426 kts | 354° |
| 2026-04-24 02:27 | 38.79424 | -71.94778 | 34968 ft | 426 kts | 354° |
| 2026-04-24 02:27 | 38.85356 | -71.94699 | 34966 ft | 426 kts | 354° |
| 2026-04-24 02:28 | 38.91295 | -71.94638 | 34961 ft | 426 kts | 353° |
| 2026-04-24 02:28 | 38.97083 | -71.95652 | 34955 ft | 416 kts | 340° |
| 2026-04-24 02:29 | 39.02349 | -71.98539 | 34959 ft | 410 kts | 327° |
| 2026-04-24 02:29 | 39.06930 | -72.02877 | 34975 ft | 409 kts | 320° |
| 2026-04-24 02:30 | 39.11347 | -72.07527 | 34958 ft | 410 kts | 320° |
| 2026-04-24 02:30 | 39.15748 | -72.12214 | 34960 ft | 411 kts | 320° |
| 2026-04-24 02:31 | 39.20163 | -72.16889 | 34960 ft | 411 kts | 320° |
| 2026-04-24 02:31 | 39.24593 | -72.21551 | 34957 ft | 411 kts | 320° |
| 2026-04-24 02:32 | 39.29023 | -72.26215 | 34936 ft | 411 kts | 320° |
| 2026-04-24 02:32 | 39.33456 | -72.30895 | 34960 ft | 412 kts | 320° |
| 2026-04-24 02:33 | 39.37898 | -72.35593 | 34957 ft | 413 kts | 320° |
| 2026-04-24 02:33 | 39.42336 | -72.40294 | 34953 ft | 412 kts | 320° |
| 2026-04-24 02:34 | 39.46769 | -72.44998 | 34950 ft | 413 kts | 320° |
| 2026-04-24 02:34 | 39.51207 | -72.49717 | 34952 ft | 413 kts | 320° |
| 2026-04-24 02:35 | 39.55640 | -72.54438 | 34955 ft | 413 kts | 320° |
| 2026-04-24 02:35 | 39.60042 | -72.59134 | 34959 ft | 412 kts | 320° |
| 2026-04-24 02:36 | 39.64472 | -72.63868 | 34955 ft | 413 kts | 320° |
| 2026-04-24 02:36 | 39.68909 | -72.68618 | 34951 ft | 414 kts | 320° |
| 2026-04-24 02:37 | 39.73350 | -72.73380 | 34953 ft | 414 kts | 320° |
| 2026-04-24 02:37 | 39.77505 | -72.78549 | 34955 ft | 414 kts | 310° |
| 2026-04-24 02:38 | 39.80557 | -72.84909 | 34953 ft | 419 kts | 297° |
| 2026-04-24 02:38 | 39.82127 | -72.92258 | 34951 ft | 429 kts | 282° |
| 2026-04-24 02:39 | 39.82327 | -73.00079 | 34946 ft | 435 kts | 276° |
| 2026-04-24 02:39 | 39.82224 | -73.07976 | 34951 ft | 437 kts | 275° |
| 2026-04-24 02:40 | 39.82102 | -73.15822 | 34950 ft | 437 kts | 275° |
| 2026-04-24 02:40 | 39.82008 | -73.23712 | 34949 ft | 436 kts | 275° |
| 2026-04-24 02:41 | 39.81927 | -73.31608 | 34933 ft | 436 kts | 275° |
| 2026-04-24 02:41 | 39.81844 | -73.39509 | 34952 ft | 437 kts | 275° |
| 2026-04-24 02:42 | 39.81754 | -73.47427 | 34949 ft | 438 kts | 275° |
| 2026-04-24 02:42 | 39.81657 | -73.55344 | 34949 ft | 438 kts | 275° |
| 2026-04-24 02:43 | 39.81555 | -73.63257 | 34952 ft | 438 kts | 275° |
| 2026-04-24 02:43 | 39.81420 | -73.71182 | 34943 ft | 440 kts | 273° |
| 2026-04-24 02:44 | 39.80906 | -73.79131 | 34953 ft | 442 kts | 270° |
| 2026-04-24 02:44 | 39.80271 | -73.87091 | 34950 ft | 442 kts | 270° |
| 2026-04-24 02:45 | 39.79796 | -73.95044 | 34948 ft | 437 kts | 276° |
| 2026-04-24 02:45 | 39.80008 | -74.02907 | 34819 ft | 432 kts | 278° |
| 2026-04-24 02:46 | 39.80168 | -74.06804 | 34082 ft | 431 kts | 278° |
| 2026-04-24 02:46 | 39.80349 | -74.10719 | 32906 ft | 438 kts | 278° |
| 2026-04-24 02:46 | 39.80537 | -74.14703 | 31835 ft | 443 kts | 277° |
| 2026-04-24 02:46 | 39.80722 | -74.18718 | 30838 ft | 446 kts | 277° |
| 2026-04-24 02:47 | 39.80842 | -74.21395 | 30182 ft | 448 kts | 277° |
| 2026-04-24 02:47 | 39.81017 | -74.25448 | 29097 ft | 450 kts | 277° |
| 2026-04-24 02:47 | 39.81186 | -74.29502 | 28144 ft | 449 kts | 276° |
| 2026-04-24 02:47 | 39.81351 | -74.33545 | 27305 ft | 446 kts | 276° |
| 2026-04-24 02:48 | 39.81680 | -74.37517 | 26487 ft | 438 kts | 284° |
| 2026-04-24 02:48 | 39.82601 | -74.41261 | 25691 ft | 433 kts | 296° |
| 2026-04-24 02:48 | 39.84203 | -74.44530 | 24979 ft | 428 kts | 310° |
| 2026-04-24 02:48 | 39.86365 | -74.47156 | 24317 ft | 421 kts | 319° |
| 2026-04-24 02:49 | 39.88667 | -74.49400 | 23112 ft | 409 kts | 323° |
| 2026-04-24 02:49 | 39.91026 | -74.51453 | 21544 ft | 405 kts | 324° |
| 2026-04-24 02:49 | 39.93394 | -74.53390 | 20150 ft | 398 kts | 326° |
| 2026-04-24 02:49 | 39.95833 | -74.55036 | 18827 ft | 392 kts | 333° |
| 2026-04-24 02:50 | 39.98383 | -74.56239 | 17431 ft | 388 kts | 340° |
| 2026-04-24 02:50 | 40.01006 | -74.56927 | 15986 ft | 384 kts | 349° |
| 2026-04-24 02:50 | 40.03650 | -74.57023 | 14972 ft | 374 kts | 359° |
| 2026-04-24 02:50 | 40.06158 | -74.56556 | 14363 ft | 355 kts | 7° |
| 2026-04-24 02:51 | 40.08494 | -74.55663 | 13694 ft | 347 kts | 13° |
| 2026-04-24 02:51 | 40.10761 | -74.54591 | 12984 ft | 346 kts | 14° |
| 2026-04-24 02:51 | 40.13000 | -74.53436 | 12323 ft | 346 kts | 16° |
| 2026-04-24 02:51 | 40.15218 | -74.52246 | 11681 ft | 344 kts | 16° |
| 2026-04-24 02:52 | 40.17403 | -74.51327 | 11453 ft | 311 kts | 5° |
| 2026-04-24 02:52 | 40.19418 | -74.51090 | 11359 ft | 273 kts | 352° |
| 2026-04-24 02:52 | 40.21172 | -74.51459 | 11260 ft | 242 kts | 339° |
| 2026-04-24 02:52 | 40.22673 | -74.52320 | 11161 ft | 233 kts | 327° |
| 2026-04-24 02:53 | 40.24014 | -74.53493 | 11040 ft | 232 kts | 322° |
| 2026-04-24 02:53 | 40.25285 | -74.54797 | 10913 ft | 232 kts | 320° |
| 2026-04-24 02:53 | 40.26510 | -74.56159 | 10805 ft | 231 kts | 318° |
| 2026-04-24 02:53 | 40.27721 | -74.57544 | 10682 ft | 231 kts | 318° |
| 2026-04-24 02:54 | 40.28930 | -74.58927 | 10560 ft | 231 kts | 318° |
| 2026-04-24 02:54 | 40.30143 | -74.60300 | 10400 ft | 231 kts | 319° |
| 2026-04-24 02:54 | 40.31393 | -74.61614 | 10133 ft | 230 kts | 324° |
| 2026-04-24 02:54 | 40.32804 | -74.62610 | 9824 ft | 232 kts | 331° |
| 2026-04-24 02:55 | 40.34348 | -74.63465 | 9565 ft | 249 kts | 334° |
| 2026-04-24 02:55 | 40.35990 | -74.64256 | 9333 ft | 250 kts | 336° |
| 2026-04-24 02:55 | 40.37623 | -74.64966 | 8800 ft | 250 kts | 339° |
| 2026-04-24 02:55 | 40.39382 | -74.65301 | 8420 ft | 262 kts | 354° |
| 2026-04-24 02:56 | 40.41201 | -74.64855 | 8054 ft | 274 kts | 14° |
| 2026-04-24 02:56 | 40.42806 | -74.63416 | 7665 ft | 290 kts | 41° |
| 2026-04-24 02:56 | 40.43822 | -74.61081 | 7272 ft | 301 kts | 64° |
| 2026-04-24 02:56 | 40.44469 | -74.58454 | 6863 ft | 302 kts | 69° |
| 2026-04-24 02:57 | 40.45063 | -74.55812 | 6452 ft | 301 kts | 69° |
| 2026-04-24 02:57 | 40.45665 | -74.53188 | 6037 ft | 300 kts | 69° |
| 2026-04-24 02:57 | 40.46274 | -74.50589 | 5625 ft | 296 kts | 70° |
| 2026-04-24 02:57 | 40.46882 | -74.48026 | 5216 ft | 292 kts | 70° |
| 2026-04-24 02:58 | 40.47480 | -74.45523 | 5004 ft | 291 kts | 70° |
| 2026-04-24 02:58 | 40.48090 | -74.42977 | 4695 ft | 287 kts | 71° |
| 2026-04-24 02:58 | 40.48687 | -74.40486 | 4284 ft | 284 kts | 71° |
| 2026-04-24 02:58 | 40.49268 | -74.38058 | 3912 ft | 281 kts | 71° |
| 2026-04-24 02:59 | 40.49867 | -74.35670 | 3762 ft | 269 kts | 68° |
| 2026-04-24 02:59 | 40.50573 | -74.33474 | 3578 ft | 252 kts | 60° |
| 2026-04-24 02:59 | 40.51382 | -74.31563 | 3390 ft | 228 kts | 54° |
| 2026-04-24 02:59 | 40.52250 | -74.29941 | 3241 ft | 206 kts | 48° |
| 2026-04-24 03:00 | 40.53152 | -74.28558 | 3117 ft | 195 kts | 42° |
| 2026-04-24 03:00 | 40.54115 | -74.27324 | 2999 ft | 192 kts | 38° |
| 2026-04-24 03:00 | 40.55144 | -74.26215 | 2887 ft | 190 kts | 33° |
| 2026-04-24 03:00 | 40.56221 | -74.25220 | 2719 ft | 188 kts | 27° |
| 2026-04-24 03:01 | 40.57372 | -74.24433 | 2454 ft | 185 kts | 22° |
| 2026-04-24 03:01 | 40.58508 | -74.23690 | 2193 ft | 177 kts | 24° |
| 2026-04-24 03:01 | 40.59569 | -74.23013 | 1972 ft | 163 kts | 22° |
| 2026-04-24 03:01 | 40.60573 | -74.22378 | 1732 ft | 158 kts | 23° |
| 2026-04-24 03:02 | 40.61551 | -74.21753 | 1532 ft | 152 kts | 23° |
| 2026-04-24 03:02 | 40.62470 | -74.21167 | 1313 ft | 141 kts | 23° |
| 2026-04-24 03:02 | 40.63325 | -74.20624 | 1106 ft | 131 kts | 22° |
| 2026-04-24 03:02 | 40.64118 | -74.20120 | 950 ft | 125 kts | 23° |
| 2026-04-24 03:03 | 40.64911 | -74.19620 | 762 ft | 127 kts | 24° |
| 2026-04-24 03:03 | 40.65714 | -74.19105 | 553 ft | 129 kts | 25° |
| 2026-04-24 03:03 | 40.66514 | -74.18570 | 389 ft | 129 kts | 23° |
| 2026-04-24 03:03 | 40.67317 | -74.18063 | 195 ft | 126 kts | 21° |
| 2026-04-24 03:04 | 40.68108 | -74.17580 | 54 ft | 125 kts | 24° |
| 2026-04-24 03:04 | 40.68846 | -74.17109 | 29 ft | 107 kts | 25° |
| 2026-04-24 03:04 | 40.69370 | -74.16780 | 29 ft | 38 kts | 25° |
| 2026-04-24 03:04 | 40.69477 | -74.16844 | 28 ft | 15 kts | 293° |
| 2026-04-24 03:05 | 40.69513 | -74.16954 | 26 ft | 10 kts | 292° |
| 2026-04-24 03:05 | 40.69526 | -74.17038 | 26 ft | 9 kts | 270° |
| 2026-04-24 03:05 | 40.69520 | -74.17125 | 25 ft | 10 kts | 267° |
| 2026-04-24 03:05 | 40.69503 | -74.17195 | 28 ft | 9 kts | 239° |
| 2026-04-24 03:06 | 40.69478 | -74.17253 | 28 ft | 0 kts | 242° |